<?xml version="1.0" encoding="UTF-8" standalone="no" ?>
<gpx xmlns="http://www.topografix.com/GPX/1/1" xmlns:xsi="http://www.w3.org/2001/XMLSchema-instance" xsi:schemaLocation="http://www.topografix.com/GPX/1/1 http://www.topografix.com/GPX/1/1/gpx.xsd" version="1.1" creator="VisuGPX - https://www.visugpx.com">
  <metadata>
    <name>Les balades du confinement</name>
  </metadata>
  <trk>
    <name><![CDATA[3 avril]]></name>
    <trkseg>
      <trkpt lat="43.55023" lon="1.47682">
        <ele>234.44</ele>
        <time>2020-04-03T15:32:21Z</time>
      </trkpt>
      <trkpt lat="43.5502" lon="1.47677">
        <ele>205.285</ele>
        <time>2020-04-03T15:32:27Z</time>
      </trkpt>
      <trkpt lat="43.55012" lon="1.47677">
        <ele>204.675</ele>
        <time>2020-04-03T15:32:33Z</time>
      </trkpt>
      <trkpt lat="43.55006" lon="1.47679">
        <ele>204.98</ele>
        <time>2020-04-03T15:32:38Z</time>
      </trkpt>
      <trkpt lat="43.55001" lon="1.47681">
        <ele>206.434</ele>
        <time>2020-04-03T15:32:43Z</time>
      </trkpt>
      <trkpt lat="43.54997" lon="1.47683">
        <ele>207.292</ele>
        <time>2020-04-03T15:32:48Z</time>
      </trkpt>
      <trkpt lat="43.54991" lon="1.47688">
        <ele>207.246</ele>
        <time>2020-04-03T15:32:54Z</time>
      </trkpt>
      <trkpt lat="43.54987" lon="1.47693">
        <ele>207.31</ele>
        <time>2020-04-03T15:32:59Z</time>
      </trkpt>
      <trkpt lat="43.54983" lon="1.47694">
        <ele>207.39</ele>
        <time>2020-04-03T15:33:04Z</time>
      </trkpt>
      <trkpt lat="43.5498" lon="1.47695">
        <ele>207.503</ele>
        <time>2020-04-03T15:33:10Z</time>
      </trkpt>
      <trkpt lat="43.54973" lon="1.47699">
        <ele>207.625</ele>
        <time>2020-04-03T15:33:16Z</time>
      </trkpt>
      <trkpt lat="43.54966" lon="1.47701">
        <ele>207.751</ele>
        <time>2020-04-03T15:33:22Z</time>
      </trkpt>
      <trkpt lat="43.54961" lon="1.47706">
        <ele>207.858</ele>
        <time>2020-04-03T15:33:27Z</time>
      </trkpt>
      <trkpt lat="43.54955" lon="1.47708">
        <ele>207.951</ele>
        <time>2020-04-03T15:33:32Z</time>
      </trkpt>
      <trkpt lat="43.54949" lon="1.4771">
        <ele>208.08</ele>
        <time>2020-04-03T15:33:38Z</time>
      </trkpt>
      <trkpt lat="43.54944" lon="1.47715">
        <ele>208.185</ele>
        <time>2020-04-03T15:33:43Z</time>
      </trkpt>
      <trkpt lat="43.5494" lon="1.47719">
        <ele>208.302</ele>
        <time>2020-04-03T15:33:49Z</time>
      </trkpt>
      <trkpt lat="43.54935" lon="1.47723">
        <ele>208.404</ele>
        <time>2020-04-03T15:33:55Z</time>
      </trkpt>
      <trkpt lat="43.5493" lon="1.47727">
        <ele>208.498</ele>
        <time>2020-04-03T15:34:01Z</time>
      </trkpt>
      <trkpt lat="43.54923" lon="1.47732">
        <ele>208.587</ele>
        <time>2020-04-03T15:34:07Z</time>
      </trkpt>
      <trkpt lat="43.54916" lon="1.47734">
        <ele>208.63</ele>
        <time>2020-04-03T15:34:12Z</time>
      </trkpt>
      <trkpt lat="43.54913" lon="1.4774">
        <ele>208.647</ele>
        <time>2020-04-03T15:34:18Z</time>
      </trkpt>
      <trkpt lat="43.54908" lon="1.47743">
        <ele>208.625</ele>
        <time>2020-04-03T15:34:23Z</time>
      </trkpt>
      <trkpt lat="43.549" lon="1.47746">
        <ele>208.578</ele>
        <time>2020-04-03T15:34:29Z</time>
      </trkpt>
      <trkpt lat="43.54892" lon="1.47751">
        <ele>208.524</ele>
        <time>2020-04-03T15:34:35Z</time>
      </trkpt>
      <trkpt lat="43.54885" lon="1.47756">
        <ele>208.483</ele>
        <time>2020-04-03T15:34:41Z</time>
      </trkpt>
      <trkpt lat="43.5488" lon="1.47758">
        <ele>208.444</ele>
        <time>2020-04-03T15:34:47Z</time>
      </trkpt>
      <trkpt lat="43.54874" lon="1.47762">
        <ele>208.428</ele>
        <time>2020-04-03T15:34:52Z</time>
      </trkpt>
      <trkpt lat="43.54866" lon="1.47764">
        <ele>208.419</ele>
        <time>2020-04-03T15:34:58Z</time>
      </trkpt>
      <trkpt lat="43.54861" lon="1.47768">
        <ele>208.42</ele>
        <time>2020-04-03T15:35:03Z</time>
      </trkpt>
      <trkpt lat="43.54853" lon="1.47773">
        <ele>208.451</ele>
        <time>2020-04-03T15:35:09Z</time>
      </trkpt>
      <trkpt lat="43.54845" lon="1.47777">
        <ele>208.515</ele>
        <time>2020-04-03T15:35:15Z</time>
      </trkpt>
      <trkpt lat="43.5484" lon="1.47779">
        <ele>208.577</ele>
        <time>2020-04-03T15:35:20Z</time>
      </trkpt>
      <trkpt lat="43.54834" lon="1.4778">
        <ele>208.63</ele>
        <time>2020-04-03T15:35:25Z</time>
      </trkpt>
      <trkpt lat="43.54827" lon="1.47783">
        <ele>208.671</ele>
        <time>2020-04-03T15:35:31Z</time>
      </trkpt>
      <trkpt lat="43.5482" lon="1.47789">
        <ele>208.699</ele>
        <time>2020-04-03T15:35:37Z</time>
      </trkpt>
      <trkpt lat="43.54815" lon="1.47791">
        <ele>208.729</ele>
        <time>2020-04-03T15:35:42Z</time>
      </trkpt>
      <trkpt lat="43.5481" lon="1.47794">
        <ele>208.758</ele>
        <time>2020-04-03T15:35:47Z</time>
      </trkpt>
      <trkpt lat="43.54805" lon="1.47798">
        <ele>208.787</ele>
        <time>2020-04-03T15:35:52Z</time>
      </trkpt>
      <trkpt lat="43.548" lon="1.47803">
        <ele>208.83</ele>
        <time>2020-04-03T15:35:58Z</time>
      </trkpt>
      <trkpt lat="43.54795" lon="1.47808">
        <ele>208.864</ele>
        <time>2020-04-03T15:36:04Z</time>
      </trkpt>
      <trkpt lat="43.54791" lon="1.47818">
        <ele>208.865</ele>
        <time>2020-04-03T15:36:10Z</time>
      </trkpt>
      <trkpt lat="43.54785" lon="1.47823">
        <ele>208.886</ele>
        <time>2020-04-03T15:36:16Z</time>
      </trkpt>
      <trkpt lat="43.54782" lon="1.47825">
        <ele>208.912</ele>
        <time>2020-04-03T15:36:22Z</time>
      </trkpt>
      <trkpt lat="43.54777" lon="1.47829">
        <ele>208.925</ele>
        <time>2020-04-03T15:36:27Z</time>
      </trkpt>
      <trkpt lat="43.54771" lon="1.47833">
        <ele>208.936</ele>
        <time>2020-04-03T15:36:32Z</time>
      </trkpt>
      <trkpt lat="43.54767" lon="1.47843">
        <ele>208.95</ele>
        <time>2020-04-03T15:36:38Z</time>
      </trkpt>
      <trkpt lat="43.54762" lon="1.47851">
        <ele>208.963</ele>
        <time>2020-04-03T15:36:43Z</time>
      </trkpt>
      <trkpt lat="43.54755" lon="1.47862">
        <ele>209.025</ele>
        <time>2020-04-03T15:36:49Z</time>
      </trkpt>
      <trkpt lat="43.5475" lon="1.47867">
        <ele>209.106</ele>
        <time>2020-04-03T15:36:55Z</time>
      </trkpt>
      <trkpt lat="43.5475" lon="1.47875">
        <ele>209.166</ele>
        <time>2020-04-03T15:37:00Z</time>
      </trkpt>
      <trkpt lat="43.54752" lon="1.47887">
        <ele>209.235</ele>
        <time>2020-04-03T15:37:06Z</time>
      </trkpt>
      <trkpt lat="43.54753" lon="1.47894">
        <ele>209.281</ele>
        <time>2020-04-03T15:37:11Z</time>
      </trkpt>
      <trkpt lat="43.54744" lon="1.47897">
        <ele>209.337</ele>
        <time>2020-04-03T15:37:17Z</time>
      </trkpt>
      <trkpt lat="43.54741" lon="1.47902">
        <ele>209.385</ele>
        <time>2020-04-03T15:37:22Z</time>
      </trkpt>
      <trkpt lat="43.54744" lon="1.47914">
        <ele>209.44</ele>
        <time>2020-04-03T15:37:28Z</time>
      </trkpt>
      <trkpt lat="43.54748" lon="1.47924">
        <ele>209.488</ele>
        <time>2020-04-03T15:37:34Z</time>
      </trkpt>
      <trkpt lat="43.5475" lon="1.47929">
        <ele>209.521</ele>
        <time>2020-04-03T15:37:39Z</time>
      </trkpt>
      <trkpt lat="43.54755" lon="1.47936">
        <ele>209.568</ele>
        <time>2020-04-03T15:37:45Z</time>
      </trkpt>
      <trkpt lat="43.54757" lon="1.47943">
        <ele>209.618</ele>
        <time>2020-04-03T15:37:50Z</time>
      </trkpt>
      <trkpt lat="43.5476" lon="1.47953">
        <ele>209.684</ele>
        <time>2020-04-03T15:37:56Z</time>
      </trkpt>
      <trkpt lat="43.54762" lon="1.47961">
        <ele>209.738</ele>
        <time>2020-04-03T15:38:01Z</time>
      </trkpt>
      <trkpt lat="43.54765" lon="1.47965">
        <ele>209.793</ele>
        <time>2020-04-03T15:38:06Z</time>
      </trkpt>
      <trkpt lat="43.54769" lon="1.47974">
        <ele>209.864</ele>
        <time>2020-04-03T15:38:12Z</time>
      </trkpt>
      <trkpt lat="43.54772" lon="1.47983">
        <ele>209.948</ele>
        <time>2020-04-03T15:38:18Z</time>
      </trkpt>
      <trkpt lat="43.54774" lon="1.47991">
        <ele>210.012</ele>
        <time>2020-04-03T15:38:23Z</time>
      </trkpt>
      <trkpt lat="43.54776" lon="1.48001">
        <ele>210.075</ele>
        <time>2020-04-03T15:38:28Z</time>
      </trkpt>
      <trkpt lat="43.54778" lon="1.48008">
        <ele>210.133</ele>
        <time>2020-04-03T15:38:33Z</time>
      </trkpt>
      <trkpt lat="43.54778" lon="1.48015">
        <ele>210.193</ele>
        <time>2020-04-03T15:38:39Z</time>
      </trkpt>
      <trkpt lat="43.54775" lon="1.4802">
        <ele>210.234</ele>
        <time>2020-04-03T15:38:44Z</time>
      </trkpt>
      <trkpt lat="43.54768" lon="1.48022">
        <ele>210.271</ele>
        <time>2020-04-03T15:38:50Z</time>
      </trkpt>
      <trkpt lat="43.54763" lon="1.48025">
        <ele>210.295</ele>
        <time>2020-04-03T15:38:56Z</time>
      </trkpt>
      <trkpt lat="43.5476" lon="1.48026">
        <ele>210.316</ele>
        <time>2020-04-03T15:39:01Z</time>
      </trkpt>
      <trkpt lat="43.54755" lon="1.4803">
        <ele>210.342</ele>
        <time>2020-04-03T15:39:07Z</time>
      </trkpt>
      <trkpt lat="43.5475" lon="1.48035">
        <ele>210.369</ele>
        <time>2020-04-03T15:39:12Z</time>
      </trkpt>
      <trkpt lat="43.54744" lon="1.48039">
        <ele>210.397</ele>
        <time>2020-04-03T15:39:18Z</time>
      </trkpt>
      <trkpt lat="43.5474" lon="1.48044">
        <ele>210.421</ele>
        <time>2020-04-03T15:39:24Z</time>
      </trkpt>
      <trkpt lat="43.54737" lon="1.4805">
        <ele>210.429</ele>
        <time>2020-04-03T15:39:30Z</time>
      </trkpt>
      <trkpt lat="43.54731" lon="1.48057">
        <ele>210.427</ele>
        <time>2020-04-03T15:39:35Z</time>
      </trkpt>
      <trkpt lat="43.54726" lon="1.48064">
        <ele>210.427</ele>
        <time>2020-04-03T15:39:41Z</time>
      </trkpt>
      <trkpt lat="43.54723" lon="1.4807">
        <ele>210.433</ele>
        <time>2020-04-03T15:39:46Z</time>
      </trkpt>
      <trkpt lat="43.54717" lon="1.48078">
        <ele>210.43</ele>
        <time>2020-04-03T15:39:52Z</time>
      </trkpt>
      <trkpt lat="43.54715" lon="1.4808">
        <ele>210.426</ele>
        <time>2020-04-03T15:39:57Z</time>
      </trkpt>
      <trkpt lat="43.54716" lon="1.4808">
        <ele>210.425</ele>
        <time>2020-04-03T15:40:02Z</time>
      </trkpt>
      <trkpt lat="43.54715" lon="1.48081">
        <ele>210.421</ele>
        <time>2020-04-03T15:40:08Z</time>
      </trkpt>
      <trkpt lat="43.54713" lon="1.48084">
        <ele>210.425</ele>
        <time>2020-04-03T15:40:14Z</time>
      </trkpt>
      <trkpt lat="43.54711" lon="1.48089">
        <ele>210.406</ele>
        <time>2020-04-03T15:40:20Z</time>
      </trkpt>
      <trkpt lat="43.54708" lon="1.48095">
        <ele>210.375</ele>
        <time>2020-04-03T15:40:25Z</time>
      </trkpt>
      <trkpt lat="43.54703" lon="1.48097">
        <ele>210.322</ele>
        <time>2020-04-03T15:40:31Z</time>
      </trkpt>
      <trkpt lat="43.54697" lon="1.48098">
        <ele>210.277</ele>
        <time>2020-04-03T15:40:37Z</time>
      </trkpt>
      <trkpt lat="43.54688" lon="1.48101">
        <ele>210.241</ele>
        <time>2020-04-03T15:40:43Z</time>
      </trkpt>
      <trkpt lat="43.54682" lon="1.48107">
        <ele>210.204</ele>
        <time>2020-04-03T15:40:49Z</time>
      </trkpt>
      <trkpt lat="43.54677" lon="1.48111">
        <ele>210.172</ele>
        <time>2020-04-03T15:40:54Z</time>
      </trkpt>
      <trkpt lat="43.5467" lon="1.48114">
        <ele>210.132</ele>
        <time>2020-04-03T15:41:00Z</time>
      </trkpt>
      <trkpt lat="43.54664" lon="1.48118">
        <ele>210.098</ele>
        <time>2020-04-03T15:41:05Z</time>
      </trkpt>
      <trkpt lat="43.54657" lon="1.48122">
        <ele>210.06</ele>
        <time>2020-04-03T15:41:11Z</time>
      </trkpt>
      <trkpt lat="43.5465" lon="1.48124">
        <ele>210.018</ele>
        <time>2020-04-03T15:41:17Z</time>
      </trkpt>
      <trkpt lat="43.54644" lon="1.48128">
        <ele>209.989</ele>
        <time>2020-04-03T15:41:22Z</time>
      </trkpt>
      <trkpt lat="43.54637" lon="1.4813">
        <ele>209.955</ele>
        <time>2020-04-03T15:41:28Z</time>
      </trkpt>
      <trkpt lat="43.54632" lon="1.48133">
        <ele>209.929</ele>
        <time>2020-04-03T15:41:33Z</time>
      </trkpt>
      <trkpt lat="43.54626" lon="1.48135">
        <ele>209.905</ele>
        <time>2020-04-03T15:41:38Z</time>
      </trkpt>
      <trkpt lat="43.54621" lon="1.48135">
        <ele>209.881</ele>
        <time>2020-04-03T15:41:44Z</time>
      </trkpt>
      <trkpt lat="43.54615" lon="1.48136">
        <ele>209.863</ele>
        <time>2020-04-03T15:41:50Z</time>
      </trkpt>
      <trkpt lat="43.54609" lon="1.48137">
        <ele>209.852</ele>
        <time>2020-04-03T15:41:55Z</time>
      </trkpt>
      <trkpt lat="43.54605" lon="1.4814">
        <ele>209.846</ele>
        <time>2020-04-03T15:42:00Z</time>
      </trkpt>
      <trkpt lat="43.54598" lon="1.48141">
        <ele>209.837</ele>
        <time>2020-04-03T15:42:06Z</time>
      </trkpt>
      <trkpt lat="43.54593" lon="1.48143">
        <ele>209.829</ele>
        <time>2020-04-03T15:42:12Z</time>
      </trkpt>
      <trkpt lat="43.54588" lon="1.48145">
        <ele>209.827</ele>
        <time>2020-04-03T15:42:17Z</time>
      </trkpt>
      <trkpt lat="43.54583" lon="1.48145">
        <ele>209.833</ele>
        <time>2020-04-03T15:42:23Z</time>
      </trkpt>
      <trkpt lat="43.54575" lon="1.48149">
        <ele>209.839</ele>
        <time>2020-04-03T15:42:29Z</time>
      </trkpt>
      <trkpt lat="43.54569" lon="1.48157">
        <ele>209.848</ele>
        <time>2020-04-03T15:42:35Z</time>
      </trkpt>
      <trkpt lat="43.54561" lon="1.48158">
        <ele>209.862</ele>
        <time>2020-04-03T15:42:40Z</time>
      </trkpt>
      <trkpt lat="43.54554" lon="1.48158">
        <ele>209.885</ele>
        <time>2020-04-03T15:42:46Z</time>
      </trkpt>
      <trkpt lat="43.54548" lon="1.48157">
        <ele>209.891</ele>
        <time>2020-04-03T15:42:51Z</time>
      </trkpt>
      <trkpt lat="43.5454" lon="1.48159">
        <ele>209.894</ele>
        <time>2020-04-03T15:42:56Z</time>
      </trkpt>
      <trkpt lat="43.54535" lon="1.48161">
        <ele>209.892</ele>
        <time>2020-04-03T15:43:02Z</time>
      </trkpt>
      <trkpt lat="43.5453" lon="1.48164">
        <ele>209.888</ele>
        <time>2020-04-03T15:43:07Z</time>
      </trkpt>
      <trkpt lat="43.54523" lon="1.48167">
        <ele>209.893</ele>
        <time>2020-04-03T15:43:12Z</time>
      </trkpt>
      <trkpt lat="43.54516" lon="1.4817">
        <ele>209.894</ele>
        <time>2020-04-03T15:43:18Z</time>
      </trkpt>
      <trkpt lat="43.54508" lon="1.48172">
        <ele>209.903</ele>
        <time>2020-04-03T15:43:24Z</time>
      </trkpt>
      <trkpt lat="43.54504" lon="1.48172">
        <ele>209.928</ele>
        <time>2020-04-03T15:43:29Z</time>
      </trkpt>
      <trkpt lat="43.54499" lon="1.48174">
        <ele>209.958</ele>
        <time>2020-04-03T15:43:34Z</time>
      </trkpt>
      <trkpt lat="43.54492" lon="1.48177">
        <ele>209.991</ele>
        <time>2020-04-03T15:43:39Z</time>
      </trkpt>
      <trkpt lat="43.54489" lon="1.48183">
        <ele>210.044</ele>
        <time>2020-04-03T15:43:45Z</time>
      </trkpt>
      <trkpt lat="43.54489" lon="1.48191">
        <ele>210.079</ele>
        <time>2020-04-03T15:43:50Z</time>
      </trkpt>
      <trkpt lat="43.54486" lon="1.48199">
        <ele>210.107</ele>
        <time>2020-04-03T15:43:56Z</time>
      </trkpt>
      <trkpt lat="43.54484" lon="1.48203">
        <ele>210.111</ele>
        <time>2020-04-03T15:44:01Z</time>
      </trkpt>
      <trkpt lat="43.54482" lon="1.48204">
        <ele>210.094</ele>
        <time>2020-04-03T15:44:06Z</time>
      </trkpt>
      <trkpt lat="43.54479" lon="1.48202">
        <ele>210.048</ele>
        <time>2020-04-03T15:44:12Z</time>
      </trkpt>
      <trkpt lat="43.54474" lon="1.48198">
        <ele>209.996</ele>
        <time>2020-04-03T15:44:18Z</time>
      </trkpt>
      <trkpt lat="43.54466" lon="1.48195">
        <ele>209.944</ele>
        <time>2020-04-03T15:44:23Z</time>
      </trkpt>
      <trkpt lat="43.54461" lon="1.48192">
        <ele>209.878</ele>
        <time>2020-04-03T15:44:29Z</time>
      </trkpt>
      <trkpt lat="43.54455" lon="1.4819">
        <ele>209.81</ele>
        <time>2020-04-03T15:44:34Z</time>
      </trkpt>
      <trkpt lat="43.5445" lon="1.48187">
        <ele>209.723</ele>
        <time>2020-04-03T15:44:40Z</time>
      </trkpt>
      <trkpt lat="43.54444" lon="1.48185">
        <ele>209.638</ele>
        <time>2020-04-03T15:44:45Z</time>
      </trkpt>
      <trkpt lat="43.5444" lon="1.48181">
        <ele>209.541</ele>
        <time>2020-04-03T15:44:51Z</time>
      </trkpt>
      <trkpt lat="43.54433" lon="1.48175">
        <ele>209.428</ele>
        <time>2020-04-03T15:44:57Z</time>
      </trkpt>
      <trkpt lat="43.54427" lon="1.48172">
        <ele>209.312</ele>
        <time>2020-04-03T15:45:03Z</time>
      </trkpt>
      <trkpt lat="43.54421" lon="1.48166">
        <ele>209.199</ele>
        <time>2020-04-03T15:45:09Z</time>
      </trkpt>
      <trkpt lat="43.54417" lon="1.48161">
        <ele>209.077</ele>
        <time>2020-04-03T15:45:15Z</time>
      </trkpt>
      <trkpt lat="43.54409" lon="1.48158">
        <ele>208.976</ele>
        <time>2020-04-03T15:45:20Z</time>
      </trkpt>
      <trkpt lat="43.544" lon="1.48155">
        <ele>208.867</ele>
        <time>2020-04-03T15:45:26Z</time>
      </trkpt>
      <trkpt lat="43.54395" lon="1.48154">
        <ele>208.787</ele>
        <time>2020-04-03T15:45:31Z</time>
      </trkpt>
      <trkpt lat="43.54387" lon="1.48151">
        <ele>208.689</ele>
        <time>2020-04-03T15:45:37Z</time>
      </trkpt>
      <trkpt lat="43.54378" lon="1.48147">
        <ele>208.597</ele>
        <time>2020-04-03T15:45:43Z</time>
      </trkpt>
      <trkpt lat="43.54372" lon="1.48143">
        <ele>208.531</ele>
        <time>2020-04-03T15:45:48Z</time>
      </trkpt>
      <trkpt lat="43.54365" lon="1.48142">
        <ele>208.463</ele>
        <time>2020-04-03T15:45:54Z</time>
      </trkpt>
      <trkpt lat="43.5436" lon="1.48141">
        <ele>208.409</ele>
        <time>2020-04-03T15:45:59Z</time>
      </trkpt>
      <trkpt lat="43.54354" lon="1.48145">
        <ele>208.347</ele>
        <time>2020-04-03T15:46:05Z</time>
      </trkpt>
      <trkpt lat="43.54349" lon="1.48149">
        <ele>208.302</ele>
        <time>2020-04-03T15:46:11Z</time>
      </trkpt>
      <trkpt lat="43.54343" lon="1.48153">
        <ele>208.279</ele>
        <time>2020-04-03T15:46:16Z</time>
      </trkpt>
      <trkpt lat="43.54337" lon="1.48158">
        <ele>208.266</ele>
        <time>2020-04-03T15:46:22Z</time>
      </trkpt>
      <trkpt lat="43.54329" lon="1.48162">
        <ele>208.25</ele>
        <time>2020-04-03T15:46:28Z</time>
      </trkpt>
      <trkpt lat="43.54325" lon="1.48165">
        <ele>208.24</ele>
        <time>2020-04-03T15:46:33Z</time>
      </trkpt>
      <trkpt lat="43.54318" lon="1.48167">
        <ele>208.245</ele>
        <time>2020-04-03T15:46:39Z</time>
      </trkpt>
      <trkpt lat="43.54312" lon="1.48171">
        <ele>208.258</ele>
        <time>2020-04-03T15:46:44Z</time>
      </trkpt>
      <trkpt lat="43.54305" lon="1.48178">
        <ele>208.295</ele>
        <time>2020-04-03T15:46:50Z</time>
      </trkpt>
      <trkpt lat="43.54301" lon="1.48184">
        <ele>208.338</ele>
        <time>2020-04-03T15:46:55Z</time>
      </trkpt>
      <trkpt lat="43.54296" lon="1.4819">
        <ele>208.396</ele>
        <time>2020-04-03T15:47:01Z</time>
      </trkpt>
      <trkpt lat="43.54291" lon="1.48195">
        <ele>208.453</ele>
        <time>2020-04-03T15:47:07Z</time>
      </trkpt>
      <trkpt lat="43.54287" lon="1.48198">
        <ele>208.494</ele>
        <time>2020-04-03T15:47:12Z</time>
      </trkpt>
      <trkpt lat="43.54284" lon="1.48203">
        <ele>208.535</ele>
        <time>2020-04-03T15:47:17Z</time>
      </trkpt>
      <trkpt lat="43.54279" lon="1.48207">
        <ele>208.582</ele>
        <time>2020-04-03T15:47:23Z</time>
      </trkpt>
      <trkpt lat="43.54273" lon="1.48211">
        <ele>208.626</ele>
        <time>2020-04-03T15:47:29Z</time>
      </trkpt>
      <trkpt lat="43.54266" lon="1.48217">
        <ele>208.66</ele>
        <time>2020-04-03T15:47:34Z</time>
      </trkpt>
      <trkpt lat="43.54262" lon="1.48221">
        <ele>208.687</ele>
        <time>2020-04-03T15:47:39Z</time>
      </trkpt>
      <trkpt lat="43.54257" lon="1.48227">
        <ele>208.719</ele>
        <time>2020-04-03T15:47:45Z</time>
      </trkpt>
      <trkpt lat="43.54252" lon="1.48231">
        <ele>208.747</ele>
        <time>2020-04-03T15:47:50Z</time>
      </trkpt>
      <trkpt lat="43.54246" lon="1.48236">
        <ele>208.783</ele>
        <time>2020-04-03T15:47:56Z</time>
      </trkpt>
      <trkpt lat="43.54243" lon="1.48239">
        <ele>208.802</ele>
        <time>2020-04-03T15:48:01Z</time>
      </trkpt>
      <trkpt lat="43.54237" lon="1.48245">
        <ele>208.821</ele>
        <time>2020-04-03T15:48:07Z</time>
      </trkpt>
      <trkpt lat="43.54232" lon="1.4825">
        <ele>208.833</ele>
        <time>2020-04-03T15:48:13Z</time>
      </trkpt>
      <trkpt lat="43.54227" lon="1.48257">
        <ele>208.849</ele>
        <time>2020-04-03T15:48:19Z</time>
      </trkpt>
      <trkpt lat="43.54223" lon="1.48262">
        <ele>208.858</ele>
        <time>2020-04-03T15:48:24Z</time>
      </trkpt>
      <trkpt lat="43.54216" lon="1.48267">
        <ele>208.887</ele>
        <time>2020-04-03T15:48:30Z</time>
      </trkpt>
      <trkpt lat="43.54211" lon="1.4827">
        <ele>208.927</ele>
        <time>2020-04-03T15:48:35Z</time>
      </trkpt>
      <trkpt lat="43.54206" lon="1.48275">
        <ele>208.985</ele>
        <time>2020-04-03T15:48:41Z</time>
      </trkpt>
      <trkpt lat="43.54201" lon="1.4828">
        <ele>209.041</ele>
        <time>2020-04-03T15:48:46Z</time>
      </trkpt>
      <trkpt lat="43.54197" lon="1.48287">
        <ele>209.115</ele>
        <time>2020-04-03T15:48:52Z</time>
      </trkpt>
      <trkpt lat="43.54197" lon="1.48294">
        <ele>209.171</ele>
        <time>2020-04-03T15:48:57Z</time>
      </trkpt>
      <trkpt lat="43.54196" lon="1.48305">
        <ele>209.221</ele>
        <time>2020-04-03T15:49:02Z</time>
      </trkpt>
      <trkpt lat="43.54195" lon="1.4831">
        <ele>209.273</ele>
        <time>2020-04-03T15:49:07Z</time>
      </trkpt>
      <trkpt lat="43.54192" lon="1.48315">
        <ele>209.34</ele>
        <time>2020-04-03T15:49:13Z</time>
      </trkpt>
      <trkpt lat="43.54187" lon="1.48318">
        <ele>209.389</ele>
        <time>2020-04-03T15:49:18Z</time>
      </trkpt>
      <trkpt lat="43.54178" lon="1.48319">
        <ele>209.443</ele>
        <time>2020-04-03T15:49:23Z</time>
      </trkpt>
      <trkpt lat="43.54171" lon="1.48324">
        <ele>209.506</ele>
        <time>2020-04-03T15:49:29Z</time>
      </trkpt>
      <trkpt lat="43.54165" lon="1.48327">
        <ele>209.565</ele>
        <time>2020-04-03T15:49:35Z</time>
      </trkpt>
      <trkpt lat="43.54159" lon="1.4833">
        <ele>209.607</ele>
        <time>2020-04-03T15:49:40Z</time>
      </trkpt>
      <trkpt lat="43.54154" lon="1.48335">
        <ele>209.644</ele>
        <time>2020-04-03T15:49:45Z</time>
      </trkpt>
      <trkpt lat="43.54149" lon="1.48338">
        <ele>209.683</ele>
        <time>2020-04-03T15:49:51Z</time>
      </trkpt>
      <trkpt lat="43.54145" lon="1.48341">
        <ele>209.717</ele>
        <time>2020-04-03T15:49:56Z</time>
      </trkpt>
      <trkpt lat="43.54144" lon="1.48344">
        <ele>209.742</ele>
        <time>2020-04-03T15:50:02Z</time>
      </trkpt>
      <trkpt lat="43.5414" lon="1.48346">
        <ele>209.761</ele>
        <time>2020-04-03T15:50:07Z</time>
      </trkpt>
      <trkpt lat="43.5413" lon="1.48347">
        <ele>209.79</ele>
        <time>2020-04-03T15:50:13Z</time>
      </trkpt>
      <trkpt lat="43.54127" lon="1.48351">
        <ele>209.81</ele>
        <time>2020-04-03T15:50:18Z</time>
      </trkpt>
      <trkpt lat="43.5412" lon="1.48352">
        <ele>209.827</ele>
        <time>2020-04-03T15:50:24Z</time>
      </trkpt>
      <trkpt lat="43.54116" lon="1.48352">
        <ele>209.839</ele>
        <time>2020-04-03T15:50:29Z</time>
      </trkpt>
      <trkpt lat="43.5411" lon="1.48353">
        <ele>209.857</ele>
        <time>2020-04-03T15:50:35Z</time>
      </trkpt>
      <trkpt lat="43.54105" lon="1.48353">
        <ele>209.873</ele>
        <time>2020-04-03T15:50:40Z</time>
      </trkpt>
      <trkpt lat="43.54101" lon="1.48349">
        <ele>209.899</ele>
        <time>2020-04-03T15:50:46Z</time>
      </trkpt>
      <trkpt lat="43.54094" lon="1.48345">
        <ele>209.931</ele>
        <time>2020-04-03T15:50:52Z</time>
      </trkpt>
      <trkpt lat="43.54089" lon="1.48346">
        <ele>209.97</ele>
        <time>2020-04-03T15:50:58Z</time>
      </trkpt>
      <trkpt lat="43.54087" lon="1.48342">
        <ele>210.001</ele>
        <time>2020-04-03T15:51:03Z</time>
      </trkpt>
      <trkpt lat="43.54083" lon="1.48333">
        <ele>210.036</ele>
        <time>2020-04-03T15:51:09Z</time>
      </trkpt>
      <trkpt lat="43.54082" lon="1.48324">
        <ele>210.062</ele>
        <time>2020-04-03T15:51:15Z</time>
      </trkpt>
      <trkpt lat="43.54081" lon="1.48318">
        <ele>210.083</ele>
        <time>2020-04-03T15:51:21Z</time>
      </trkpt>
      <trkpt lat="43.54082" lon="1.48311">
        <ele>210.102</ele>
        <time>2020-04-03T15:51:27Z</time>
      </trkpt>
      <trkpt lat="43.54078" lon="1.48303">
        <ele>210.111</ele>
        <time>2020-04-03T15:51:33Z</time>
      </trkpt>
      <trkpt lat="43.54074" lon="1.48293">
        <ele>210.115</ele>
        <time>2020-04-03T15:51:39Z</time>
      </trkpt>
      <trkpt lat="43.54068" lon="1.48291">
        <ele>210.122</ele>
        <time>2020-04-03T15:51:44Z</time>
      </trkpt>
      <trkpt lat="43.54061" lon="1.48287">
        <ele>210.139</ele>
        <time>2020-04-03T15:51:50Z</time>
      </trkpt>
      <trkpt lat="43.54054" lon="1.48285">
        <ele>210.154</ele>
        <time>2020-04-03T15:51:56Z</time>
      </trkpt>
      <trkpt lat="43.5405" lon="1.48282">
        <ele>210.162</ele>
        <time>2020-04-03T15:52:02Z</time>
      </trkpt>
      <trkpt lat="43.54045" lon="1.4828">
        <ele>210.165</ele>
        <time>2020-04-03T15:52:08Z</time>
      </trkpt>
      <trkpt lat="43.5404" lon="1.48279">
        <ele>210.173</ele>
        <time>2020-04-03T15:52:14Z</time>
      </trkpt>
      <trkpt lat="43.54033" lon="1.48277">
        <ele>210.18</ele>
        <time>2020-04-03T15:52:19Z</time>
      </trkpt>
      <trkpt lat="43.54026" lon="1.48276">
        <ele>210.191</ele>
        <time>2020-04-03T15:52:24Z</time>
      </trkpt>
      <trkpt lat="43.5402" lon="1.48274">
        <ele>210.205</ele>
        <time>2020-04-03T15:52:29Z</time>
      </trkpt>
      <trkpt lat="43.54015" lon="1.48274">
        <ele>210.221</ele>
        <time>2020-04-03T15:52:34Z</time>
      </trkpt>
      <trkpt lat="43.54008" lon="1.48271">
        <ele>210.241</ele>
        <time>2020-04-03T15:52:40Z</time>
      </trkpt>
      <trkpt lat="43.54003" lon="1.48269">
        <ele>210.258</ele>
        <time>2020-04-03T15:52:46Z</time>
      </trkpt>
      <trkpt lat="43.53996" lon="1.48266">
        <ele>210.263</ele>
        <time>2020-04-03T15:52:52Z</time>
      </trkpt>
      <trkpt lat="43.53991" lon="1.48264">
        <ele>210.26</ele>
        <time>2020-04-03T15:52:57Z</time>
      </trkpt>
      <trkpt lat="43.53985" lon="1.48262">
        <ele>210.26</ele>
        <time>2020-04-03T15:53:03Z</time>
      </trkpt>
      <trkpt lat="43.53978" lon="1.48259">
        <ele>210.272</ele>
        <time>2020-04-03T15:53:09Z</time>
      </trkpt>
      <trkpt lat="43.53972" lon="1.48257">
        <ele>210.296</ele>
        <time>2020-04-03T15:53:15Z</time>
      </trkpt>
      <trkpt lat="43.53967" lon="1.48257">
        <ele>210.319</ele>
        <time>2020-04-03T15:53:21Z</time>
      </trkpt>
      <trkpt lat="43.53963" lon="1.48256">
        <ele>210.343</ele>
        <time>2020-04-03T15:53:26Z</time>
      </trkpt>
      <trkpt lat="43.53955" lon="1.48254">
        <ele>210.369</ele>
        <time>2020-04-03T15:53:31Z</time>
      </trkpt>
      <trkpt lat="43.5395" lon="1.48253">
        <ele>210.405</ele>
        <time>2020-04-03T15:53:37Z</time>
      </trkpt>
      <trkpt lat="43.53946" lon="1.48257">
        <ele>210.447</ele>
        <time>2020-04-03T15:53:43Z</time>
      </trkpt>
      <trkpt lat="43.53941" lon="1.48259">
        <ele>210.492</ele>
        <time>2020-04-03T15:53:49Z</time>
      </trkpt>
      <trkpt lat="43.5394" lon="1.48259">
        <ele>210.524</ele>
        <time>2020-04-03T15:53:54Z</time>
      </trkpt>
      <trkpt lat="43.5394" lon="1.48259">
        <ele>210.551</ele>
        <time>2020-04-03T15:54:00Z</time>
      </trkpt>
      <trkpt lat="43.53939" lon="1.48259">
        <ele>210.558</ele>
        <time>2020-04-03T15:54:05Z</time>
      </trkpt>
      <trkpt lat="43.53939" lon="1.48259">
        <ele>210.601</ele>
        <time>2020-04-03T15:54:11Z</time>
      </trkpt>
      <trkpt lat="43.53937" lon="1.4826">
        <ele>210.709</ele>
        <time>2020-04-03T15:54:17Z</time>
      </trkpt>
      <trkpt lat="43.53933" lon="1.48262">
        <ele>210.798</ele>
        <time>2020-04-03T15:54:22Z</time>
      </trkpt>
      <trkpt lat="43.53929" lon="1.48266">
        <ele>210.902</ele>
        <time>2020-04-03T15:54:28Z</time>
      </trkpt>
      <trkpt lat="43.53924" lon="1.48268">
        <ele>211.015</ele>
        <time>2020-04-03T15:54:34Z</time>
      </trkpt>
      <trkpt lat="43.53917" lon="1.48269">
        <ele>211.133</ele>
        <time>2020-04-03T15:54:40Z</time>
      </trkpt>
      <trkpt lat="43.53909" lon="1.48272">
        <ele>211.262</ele>
        <time>2020-04-03T15:54:46Z</time>
      </trkpt>
      <trkpt lat="43.53904" lon="1.48275">
        <ele>211.365</ele>
        <time>2020-04-03T15:54:51Z</time>
      </trkpt>
      <trkpt lat="43.53898" lon="1.48281">
        <ele>211.481</ele>
        <time>2020-04-03T15:54:57Z</time>
      </trkpt>
      <trkpt lat="43.53893" lon="1.48282">
        <ele>211.574</ele>
        <time>2020-04-03T15:55:02Z</time>
      </trkpt>
      <trkpt lat="43.53887" lon="1.48286">
        <ele>211.676</ele>
        <time>2020-04-03T15:55:08Z</time>
      </trkpt>
      <trkpt lat="43.53879" lon="1.48293">
        <ele>211.769</ele>
        <time>2020-04-03T15:55:14Z</time>
      </trkpt>
      <trkpt lat="43.53874" lon="1.48294">
        <ele>211.84</ele>
        <time>2020-04-03T15:55:19Z</time>
      </trkpt>
      <trkpt lat="43.53869" lon="1.48296">
        <ele>211.923</ele>
        <time>2020-04-03T15:55:25Z</time>
      </trkpt>
      <trkpt lat="43.53868" lon="1.48297">
        <ele>211.944</ele>
        <time>2020-04-03T15:55:31Z</time>
      </trkpt>
      <trkpt lat="43.53868" lon="1.48297">
        <ele>211.953</ele>
        <time>2020-04-03T15:55:37Z</time>
      </trkpt>
      <trkpt lat="43.53868" lon="1.48297">
        <ele>211.963</ele>
        <time>2020-04-03T15:55:43Z</time>
      </trkpt>
      <trkpt lat="43.53868" lon="1.48297">
        <ele>211.976</ele>
        <time>2020-04-03T15:55:49Z</time>
      </trkpt>
      <trkpt lat="43.53867" lon="1.48298">
        <ele>212.033</ele>
        <time>2020-04-03T15:55:54Z</time>
      </trkpt>
      <trkpt lat="43.53863" lon="1.483">
        <ele>212.151</ele>
        <time>2020-04-03T15:55:59Z</time>
      </trkpt>
      <trkpt lat="43.53858" lon="1.48301">
        <ele>212.286</ele>
        <time>2020-04-03T15:56:05Z</time>
      </trkpt>
      <trkpt lat="43.53852" lon="1.48305">
        <ele>212.408</ele>
        <time>2020-04-03T15:56:11Z</time>
      </trkpt>
      <trkpt lat="43.53845" lon="1.48308">
        <ele>212.522</ele>
        <time>2020-04-03T15:56:17Z</time>
      </trkpt>
      <trkpt lat="43.53841" lon="1.48311">
        <ele>212.608</ele>
        <time>2020-04-03T15:56:22Z</time>
      </trkpt>
      <trkpt lat="43.53839" lon="1.48312">
        <ele>212.62</ele>
        <time>2020-04-03T15:56:28Z</time>
      </trkpt>
      <trkpt lat="43.53838" lon="1.48313">
        <ele>212.672</ele>
        <time>2020-04-03T15:56:33Z</time>
      </trkpt>
      <trkpt lat="43.53832" lon="1.48316">
        <ele>212.798</ele>
        <time>2020-04-03T15:56:39Z</time>
      </trkpt>
      <trkpt lat="43.53828" lon="1.48318">
        <ele>212.894</ele>
        <time>2020-04-03T15:56:44Z</time>
      </trkpt>
      <trkpt lat="43.53824" lon="1.48321">
        <ele>213.002</ele>
        <time>2020-04-03T15:56:50Z</time>
      </trkpt>
      <trkpt lat="43.53818" lon="1.48326">
        <ele>213.105</ele>
        <time>2020-04-03T15:56:56Z</time>
      </trkpt>
      <trkpt lat="43.53813" lon="1.4833">
        <ele>213.2</ele>
        <time>2020-04-03T15:57:02Z</time>
      </trkpt>
      <trkpt lat="43.53809" lon="1.48333">
        <ele>213.273</ele>
        <time>2020-04-03T15:57:07Z</time>
      </trkpt>
      <trkpt lat="43.53809" lon="1.48334">
        <ele>213.294</ele>
        <time>2020-04-03T15:57:13Z</time>
      </trkpt>
      <trkpt lat="43.53808" lon="1.48337">
        <ele>213.35</ele>
        <time>2020-04-03T15:57:19Z</time>
      </trkpt>
      <trkpt lat="43.53804" lon="1.48341">
        <ele>213.416</ele>
        <time>2020-04-03T15:57:24Z</time>
      </trkpt>
      <trkpt lat="43.53799" lon="1.48344">
        <ele>213.476</ele>
        <time>2020-04-03T15:57:29Z</time>
      </trkpt>
      <trkpt lat="43.53793" lon="1.48349">
        <ele>213.531</ele>
        <time>2020-04-03T15:57:34Z</time>
      </trkpt>
      <trkpt lat="43.53789" lon="1.48354">
        <ele>213.594</ele>
        <time>2020-04-03T15:57:40Z</time>
      </trkpt>
      <trkpt lat="43.53789" lon="1.48355">
        <ele>213.61</ele>
        <time>2020-04-03T15:57:45Z</time>
      </trkpt>
      <trkpt lat="43.53789" lon="1.48355">
        <ele>213.616</ele>
        <time>2020-04-03T15:57:51Z</time>
      </trkpt>
      <trkpt lat="43.5379" lon="1.48358">
        <ele>213.646</ele>
        <time>2020-04-03T15:57:56Z</time>
      </trkpt>
      <trkpt lat="43.53793" lon="1.48366">
        <ele>213.687</ele>
        <time>2020-04-03T15:58:01Z</time>
      </trkpt>
      <trkpt lat="43.53798" lon="1.48372">
        <ele>213.731</ele>
        <time>2020-04-03T15:58:07Z</time>
      </trkpt>
      <trkpt lat="43.53802" lon="1.48379">
        <ele>213.765</ele>
        <time>2020-04-03T15:58:13Z</time>
      </trkpt>
      <trkpt lat="43.53805" lon="1.48387">
        <ele>213.791</ele>
        <time>2020-04-03T15:58:19Z</time>
      </trkpt>
      <trkpt lat="43.53805" lon="1.48391">
        <ele>213.813</ele>
        <time>2020-04-03T15:58:25Z</time>
      </trkpt>
      <trkpt lat="43.53807" lon="1.48395">
        <ele>213.835</ele>
        <time>2020-04-03T15:58:30Z</time>
      </trkpt>
      <trkpt lat="43.53811" lon="1.48403">
        <ele>213.857</ele>
        <time>2020-04-03T15:58:36Z</time>
      </trkpt>
      <trkpt lat="43.53814" lon="1.48408">
        <ele>213.871</ele>
        <time>2020-04-03T15:58:41Z</time>
      </trkpt>
      <trkpt lat="43.53818" lon="1.48414">
        <ele>213.88</ele>
        <time>2020-04-03T15:58:47Z</time>
      </trkpt>
      <trkpt lat="43.53821" lon="1.48421">
        <ele>213.884</ele>
        <time>2020-04-03T15:58:53Z</time>
      </trkpt>
      <trkpt lat="43.53825" lon="1.48426">
        <ele>213.884</ele>
        <time>2020-04-03T15:58:58Z</time>
      </trkpt>
      <trkpt lat="43.53829" lon="1.48431">
        <ele>213.884</ele>
        <time>2020-04-03T15:59:03Z</time>
      </trkpt>
      <trkpt lat="43.53832" lon="1.48439">
        <ele>213.881</ele>
        <time>2020-04-03T15:59:09Z</time>
      </trkpt>
      <trkpt lat="43.53835" lon="1.48447">
        <ele>213.876</ele>
        <time>2020-04-03T15:59:14Z</time>
      </trkpt>
      <trkpt lat="43.5384" lon="1.48455">
        <ele>213.87</ele>
        <time>2020-04-03T15:59:20Z</time>
      </trkpt>
      <trkpt lat="43.53843" lon="1.4846">
        <ele>213.861</ele>
        <time>2020-04-03T15:59:25Z</time>
      </trkpt>
      <trkpt lat="43.53846" lon="1.48468">
        <ele>213.849</ele>
        <time>2020-04-03T15:59:31Z</time>
      </trkpt>
      <trkpt lat="43.53851" lon="1.48472">
        <ele>213.84</ele>
        <time>2020-04-03T15:59:37Z</time>
      </trkpt>
      <trkpt lat="43.53853" lon="1.48476">
        <ele>213.831</ele>
        <time>2020-04-03T15:59:42Z</time>
      </trkpt>
      <trkpt lat="43.53856" lon="1.48484">
        <ele>213.82</ele>
        <time>2020-04-03T15:59:48Z</time>
      </trkpt>
      <trkpt lat="43.53861" lon="1.48492">
        <ele>213.806</ele>
        <time>2020-04-03T15:59:54Z</time>
      </trkpt>
      <trkpt lat="43.53864" lon="1.48496">
        <ele>213.793</ele>
        <time>2020-04-03T15:59:59Z</time>
      </trkpt>
      <trkpt lat="43.53866" lon="1.48504">
        <ele>213.775</ele>
        <time>2020-04-03T16:00:05Z</time>
      </trkpt>
      <trkpt lat="43.53867" lon="1.48512">
        <ele>213.759</ele>
        <time>2020-04-03T16:00:11Z</time>
      </trkpt>
      <trkpt lat="43.53871" lon="1.48519">
        <ele>213.738</ele>
        <time>2020-04-03T16:00:17Z</time>
      </trkpt>
      <trkpt lat="43.53873" lon="1.48525">
        <ele>213.709</ele>
        <time>2020-04-03T16:00:23Z</time>
      </trkpt>
      <trkpt lat="43.53876" lon="1.4853">
        <ele>213.679</ele>
        <time>2020-04-03T16:00:28Z</time>
      </trkpt>
      <trkpt lat="43.53882" lon="1.48539">
        <ele>213.65</ele>
        <time>2020-04-03T16:00:34Z</time>
      </trkpt>
      <trkpt lat="43.53883" lon="1.48549">
        <ele>213.617</ele>
        <time>2020-04-03T16:00:40Z</time>
      </trkpt>
      <trkpt lat="43.53888" lon="1.48559">
        <ele>213.59</ele>
        <time>2020-04-03T16:00:46Z</time>
      </trkpt>
      <trkpt lat="43.53893" lon="1.48567">
        <ele>213.567</ele>
        <time>2020-04-03T16:00:52Z</time>
      </trkpt>
      <trkpt lat="43.53897" lon="1.48575">
        <ele>213.539</ele>
        <time>2020-04-03T16:00:58Z</time>
      </trkpt>
      <trkpt lat="43.539" lon="1.48579">
        <ele>213.522</ele>
        <time>2020-04-03T16:01:03Z</time>
      </trkpt>
      <trkpt lat="43.53903" lon="1.48581">
        <ele>213.507</ele>
        <time>2020-04-03T16:01:08Z</time>
      </trkpt>
      <trkpt lat="43.53905" lon="1.48584">
        <ele>213.493</ele>
        <time>2020-04-03T16:01:14Z</time>
      </trkpt>
      <trkpt lat="43.53907" lon="1.48589">
        <ele>213.476</ele>
        <time>2020-04-03T16:01:20Z</time>
      </trkpt>
      <trkpt lat="43.53907" lon="1.48592">
        <ele>213.463</ele>
        <time>2020-04-03T16:01:26Z</time>
      </trkpt>
      <trkpt lat="43.53907" lon="1.48592">
        <ele>213.461</ele>
        <time>2020-04-03T16:01:31Z</time>
      </trkpt>
      <trkpt lat="43.53907" lon="1.48592">
        <ele>213.459</ele>
        <time>2020-04-03T16:01:36Z</time>
      </trkpt>
      <trkpt lat="43.53907" lon="1.48593">
        <ele>213.455</ele>
        <time>2020-04-03T16:01:42Z</time>
      </trkpt>
      <trkpt lat="43.53908" lon="1.48593">
        <ele>213.448</ele>
        <time>2020-04-03T16:01:48Z</time>
      </trkpt>
      <trkpt lat="43.53908" lon="1.48593">
        <ele>213.43</ele>
        <time>2020-04-03T16:01:54Z</time>
      </trkpt>
      <trkpt lat="43.53908" lon="1.48593">
        <ele>213.424</ele>
        <time>2020-04-03T16:02:00Z</time>
      </trkpt>
      <trkpt lat="43.53908" lon="1.48594">
        <ele>213.417</ele>
        <time>2020-04-03T16:02:06Z</time>
      </trkpt>
      <trkpt lat="43.53909" lon="1.48594">
        <ele>213.41</ele>
        <time>2020-04-03T16:02:12Z</time>
      </trkpt>
      <trkpt lat="43.53909" lon="1.48594">
        <ele>213.402</ele>
        <time>2020-04-03T16:02:18Z</time>
      </trkpt>
      <trkpt lat="43.53909" lon="1.48594">
        <ele>213.393</ele>
        <time>2020-04-03T16:02:24Z</time>
      </trkpt>
      <trkpt lat="43.53909" lon="1.48594">
        <ele>213.384</ele>
        <time>2020-04-03T16:02:29Z</time>
      </trkpt>
      <trkpt lat="43.53909" lon="1.48594">
        <ele>213.353</ele>
        <time>2020-04-03T16:02:35Z</time>
      </trkpt>
      <trkpt lat="43.53909" lon="1.48594">
        <ele>213.319</ele>
        <time>2020-04-03T16:02:40Z</time>
      </trkpt>
      <trkpt lat="43.53909" lon="1.48594">
        <ele>213.304</ele>
        <time>2020-04-03T16:02:46Z</time>
      </trkpt>
      <trkpt lat="43.5391" lon="1.48594">
        <ele>213.289</ele>
        <time>2020-04-03T16:02:52Z</time>
      </trkpt>
      <trkpt lat="43.53909" lon="1.48595">
        <ele>213.272</ele>
        <time>2020-04-03T16:02:58Z</time>
      </trkpt>
      <trkpt lat="43.53909" lon="1.48595">
        <ele>213.256</ele>
        <time>2020-04-03T16:03:04Z</time>
      </trkpt>
      <trkpt lat="43.53908" lon="1.48596">
        <ele>213.141</ele>
        <time>2020-04-03T16:03:10Z</time>
      </trkpt>
      <trkpt lat="43.53908" lon="1.48601">
        <ele>212.99</ele>
        <time>2020-04-03T16:03:16Z</time>
      </trkpt>
      <trkpt lat="43.5391" lon="1.48604">
        <ele>212.878</ele>
        <time>2020-04-03T16:03:22Z</time>
      </trkpt>
      <trkpt lat="43.53909" lon="1.48612">
        <ele>212.779</ele>
        <time>2020-04-03T16:03:28Z</time>
      </trkpt>
      <trkpt lat="43.53908" lon="1.48619">
        <ele>212.673</ele>
        <time>2020-04-03T16:03:34Z</time>
      </trkpt>
      <trkpt lat="43.53908" lon="1.48629">
        <ele>212.582</ele>
        <time>2020-04-03T16:03:40Z</time>
      </trkpt>
      <trkpt lat="43.53908" lon="1.48635">
        <ele>212.515</ele>
        <time>2020-04-03T16:03:46Z</time>
      </trkpt>
      <trkpt lat="43.53906" lon="1.48643">
        <ele>212.449</ele>
        <time>2020-04-03T16:03:52Z</time>
      </trkpt>
      <trkpt lat="43.53902" lon="1.48653">
        <ele>212.402</ele>
        <time>2020-04-03T16:03:57Z</time>
      </trkpt>
      <trkpt lat="43.53901" lon="1.48659">
        <ele>212.36</ele>
        <time>2020-04-03T16:04:03Z</time>
      </trkpt>
      <trkpt lat="43.53899" lon="1.4867">
        <ele>212.309</ele>
        <time>2020-04-03T16:04:09Z</time>
      </trkpt>
      <trkpt lat="43.539" lon="1.48676">
        <ele>212.289</ele>
        <time>2020-04-03T16:04:15Z</time>
      </trkpt>
      <trkpt lat="43.539" lon="1.48676">
        <ele>212.274</ele>
        <time>2020-04-03T16:04:20Z</time>
      </trkpt>
      <trkpt lat="43.53901" lon="1.48687">
        <ele>212.215</ele>
        <time>2020-04-03T16:04:26Z</time>
      </trkpt>
      <trkpt lat="43.53902" lon="1.48693">
        <ele>212.162</ele>
        <time>2020-04-03T16:04:31Z</time>
      </trkpt>
      <trkpt lat="43.53905" lon="1.487">
        <ele>212.109</ele>
        <time>2020-04-03T16:04:36Z</time>
      </trkpt>
      <trkpt lat="43.53907" lon="1.48706">
        <ele>212.056</ele>
        <time>2020-04-03T16:04:41Z</time>
      </trkpt>
      <trkpt lat="43.53906" lon="1.48713">
        <ele>212.004</ele>
        <time>2020-04-03T16:04:46Z</time>
      </trkpt>
      <trkpt lat="43.53907" lon="1.48719">
        <ele>211.954</ele>
        <time>2020-04-03T16:04:51Z</time>
      </trkpt>
      <trkpt lat="43.53909" lon="1.48729">
        <ele>211.898</ele>
        <time>2020-04-03T16:04:57Z</time>
      </trkpt>
      <trkpt lat="43.53912" lon="1.48737">
        <ele>211.843</ele>
        <time>2020-04-03T16:05:03Z</time>
      </trkpt>
      <trkpt lat="43.53913" lon="1.48746">
        <ele>211.784</ele>
        <time>2020-04-03T16:05:09Z</time>
      </trkpt>
      <trkpt lat="43.53913" lon="1.48753">
        <ele>211.738</ele>
        <time>2020-04-03T16:05:14Z</time>
      </trkpt>
      <trkpt lat="43.53915" lon="1.48762">
        <ele>211.696</ele>
        <time>2020-04-03T16:05:19Z</time>
      </trkpt>
      <trkpt lat="43.53916" lon="1.4877">
        <ele>211.652</ele>
        <time>2020-04-03T16:05:25Z</time>
      </trkpt>
      <trkpt lat="43.53918" lon="1.48775">
        <ele>211.62</ele>
        <time>2020-04-03T16:05:30Z</time>
      </trkpt>
      <trkpt lat="43.53922" lon="1.4878">
        <ele>211.582</ele>
        <time>2020-04-03T16:05:36Z</time>
      </trkpt>
      <trkpt lat="43.53924" lon="1.48788">
        <ele>211.54</ele>
        <time>2020-04-03T16:05:42Z</time>
      </trkpt>
      <trkpt lat="43.53927" lon="1.48793">
        <ele>211.508</ele>
        <time>2020-04-03T16:05:47Z</time>
      </trkpt>
      <trkpt lat="43.5393" lon="1.48802">
        <ele>211.475</ele>
        <time>2020-04-03T16:05:53Z</time>
      </trkpt>
      <trkpt lat="43.53934" lon="1.48808">
        <ele>211.445</ele>
        <time>2020-04-03T16:05:58Z</time>
      </trkpt>
      <trkpt lat="43.53938" lon="1.48815">
        <ele>211.406</ele>
        <time>2020-04-03T16:06:04Z</time>
      </trkpt>
      <trkpt lat="43.53943" lon="1.48824">
        <ele>211.367</ele>
        <time>2020-04-03T16:06:10Z</time>
      </trkpt>
      <trkpt lat="43.53945" lon="1.4883">
        <ele>211.338</ele>
        <time>2020-04-03T16:06:15Z</time>
      </trkpt>
      <trkpt lat="43.53948" lon="1.48835">
        <ele>211.307</ele>
        <time>2020-04-03T16:06:20Z</time>
      </trkpt>
      <trkpt lat="43.53952" lon="1.4884">
        <ele>211.271</ele>
        <time>2020-04-03T16:06:26Z</time>
      </trkpt>
      <trkpt lat="43.53956" lon="1.4885">
        <ele>211.239</ele>
        <time>2020-04-03T16:06:31Z</time>
      </trkpt>
      <trkpt lat="43.5396" lon="1.48857">
        <ele>211.2</ele>
        <time>2020-04-03T16:06:37Z</time>
      </trkpt>
      <trkpt lat="43.53964" lon="1.48863">
        <ele>211.16</ele>
        <time>2020-04-03T16:06:43Z</time>
      </trkpt>
      <trkpt lat="43.53967" lon="1.48866">
        <ele>211.125</ele>
        <time>2020-04-03T16:06:49Z</time>
      </trkpt>
      <trkpt lat="43.53972" lon="1.48872">
        <ele>211.1</ele>
        <time>2020-04-03T16:06:54Z</time>
      </trkpt>
      <trkpt lat="43.53978" lon="1.48878">
        <ele>211.072</ele>
        <time>2020-04-03T16:06:59Z</time>
      </trkpt>
      <trkpt lat="43.53981" lon="1.48885">
        <ele>211.037</ele>
        <time>2020-04-03T16:07:05Z</time>
      </trkpt>
      <trkpt lat="43.53986" lon="1.48893">
        <ele>211.005</ele>
        <time>2020-04-03T16:07:11Z</time>
      </trkpt>
      <trkpt lat="43.53989" lon="1.48899">
        <ele>210.976</ele>
        <time>2020-04-03T16:07:16Z</time>
      </trkpt>
      <trkpt lat="43.53993" lon="1.48905">
        <ele>210.945</ele>
        <time>2020-04-03T16:07:21Z</time>
      </trkpt>
      <trkpt lat="43.53996" lon="1.4891">
        <ele>210.915</ele>
        <time>2020-04-03T16:07:26Z</time>
      </trkpt>
      <trkpt lat="43.54003" lon="1.48913">
        <ele>210.878</ele>
        <time>2020-04-03T16:07:32Z</time>
      </trkpt>
      <trkpt lat="43.54009" lon="1.48915">
        <ele>210.84</ele>
        <time>2020-04-03T16:07:38Z</time>
      </trkpt>
      <trkpt lat="43.54012" lon="1.48921">
        <ele>210.794</ele>
        <time>2020-04-03T16:07:44Z</time>
      </trkpt>
      <trkpt lat="43.54013" lon="1.48924">
        <ele>210.769</ele>
        <time>2020-04-03T16:07:51Z</time>
      </trkpt>
      <trkpt lat="43.54014" lon="1.48927">
        <ele>210.719</ele>
        <time>2020-04-03T16:07:56Z</time>
      </trkpt>
      <trkpt lat="43.54016" lon="1.48935">
        <ele>210.654</ele>
        <time>2020-04-03T16:08:02Z</time>
      </trkpt>
      <trkpt lat="43.54018" lon="1.48943">
        <ele>210.592</ele>
        <time>2020-04-03T16:08:08Z</time>
      </trkpt>
      <trkpt lat="43.54021" lon="1.4895">
        <ele>210.539</ele>
        <time>2020-04-03T16:08:13Z</time>
      </trkpt>
      <trkpt lat="43.54024" lon="1.48956">
        <ele>210.481</ele>
        <time>2020-04-03T16:08:19Z</time>
      </trkpt>
      <trkpt lat="43.54028" lon="1.48964">
        <ele>210.423</ele>
        <time>2020-04-03T16:08:25Z</time>
      </trkpt>
      <trkpt lat="43.54034" lon="1.48967">
        <ele>210.365</ele>
        <time>2020-04-03T16:08:31Z</time>
      </trkpt>
      <trkpt lat="43.54038" lon="1.48974">
        <ele>210.295</ele>
        <time>2020-04-03T16:08:37Z</time>
      </trkpt>
      <trkpt lat="43.54042" lon="1.4898">
        <ele>210.236</ele>
        <time>2020-04-03T16:08:42Z</time>
      </trkpt>
      <trkpt lat="43.54046" lon="1.48985">
        <ele>210.158</ele>
        <time>2020-04-03T16:08:48Z</time>
      </trkpt>
      <trkpt lat="43.54051" lon="1.48991">
        <ele>210.077</ele>
        <time>2020-04-03T16:08:54Z</time>
      </trkpt>
      <trkpt lat="43.54058" lon="1.48993">
        <ele>210.006</ele>
        <time>2020-04-03T16:09:00Z</time>
      </trkpt>
      <trkpt lat="43.54062" lon="1.48993">
        <ele>209.939</ele>
        <time>2020-04-03T16:09:06Z</time>
      </trkpt>
      <trkpt lat="43.54067" lon="1.48993">
        <ele>209.873</ele>
        <time>2020-04-03T16:09:11Z</time>
      </trkpt>
      <trkpt lat="43.54073" lon="1.48991">
        <ele>209.799</ele>
        <time>2020-04-03T16:09:17Z</time>
      </trkpt>
      <trkpt lat="43.54075" lon="1.48983">
        <ele>209.702</ele>
        <time>2020-04-03T16:09:23Z</time>
      </trkpt>
      <trkpt lat="43.54076" lon="1.48973">
        <ele>209.612</ele>
        <time>2020-04-03T16:09:28Z</time>
      </trkpt>
      <trkpt lat="43.54079" lon="1.48966">
        <ele>209.491</ele>
        <time>2020-04-03T16:09:34Z</time>
      </trkpt>
      <trkpt lat="43.5408" lon="1.48957">
        <ele>209.326</ele>
        <time>2020-04-03T16:09:40Z</time>
      </trkpt>
      <trkpt lat="43.5408" lon="1.48949">
        <ele>209.171</ele>
        <time>2020-04-03T16:09:45Z</time>
      </trkpt>
      <trkpt lat="43.5408" lon="1.48941">
        <ele>208.996</ele>
        <time>2020-04-03T16:09:50Z</time>
      </trkpt>
      <trkpt lat="43.54079" lon="1.48934">
        <ele>208.774</ele>
        <time>2020-04-03T16:09:56Z</time>
      </trkpt>
      <trkpt lat="43.54078" lon="1.48929">
        <ele>208.586</ele>
        <time>2020-04-03T16:10:01Z</time>
      </trkpt>
      <trkpt lat="43.54077" lon="1.48921">
        <ele>208.351</ele>
        <time>2020-04-03T16:10:07Z</time>
      </trkpt>
      <trkpt lat="43.5408" lon="1.48913">
        <ele>208.095</ele>
        <time>2020-04-03T16:10:13Z</time>
      </trkpt>
      <trkpt lat="43.54083" lon="1.48903">
        <ele>207.818</ele>
        <time>2020-04-03T16:10:19Z</time>
      </trkpt>
      <trkpt lat="43.54086" lon="1.48899">
        <ele>207.54</ele>
        <time>2020-04-03T16:10:25Z</time>
      </trkpt>
      <trkpt lat="43.54092" lon="1.48893">
        <ele>207.189</ele>
        <time>2020-04-03T16:10:31Z</time>
      </trkpt>
      <trkpt lat="43.54095" lon="1.48886">
        <ele>206.701</ele>
        <time>2020-04-03T16:10:37Z</time>
      </trkpt>
      <trkpt lat="43.54098" lon="1.4888">
        <ele>206.221</ele>
        <time>2020-04-03T16:10:43Z</time>
      </trkpt>
      <trkpt lat="43.54101" lon="1.48874">
        <ele>205.713</ele>
        <time>2020-04-03T16:10:49Z</time>
      </trkpt>
      <trkpt lat="43.54103" lon="1.48865">
        <ele>205.155</ele>
        <time>2020-04-03T16:10:55Z</time>
      </trkpt>
      <trkpt lat="43.54108" lon="1.48857">
        <ele>204.692</ele>
        <time>2020-04-03T16:11:01Z</time>
      </trkpt>
      <trkpt lat="43.5411" lon="1.48851">
        <ele>204.358</ele>
        <time>2020-04-03T16:11:06Z</time>
      </trkpt>
      <trkpt lat="43.54111" lon="1.4884">
        <ele>203.98</ele>
        <time>2020-04-03T16:11:12Z</time>
      </trkpt>
      <trkpt lat="43.54112" lon="1.48834">
        <ele>203.697</ele>
        <time>2020-04-03T16:11:17Z</time>
      </trkpt>
      <trkpt lat="43.54111" lon="1.48827">
        <ele>203.365</ele>
        <time>2020-04-03T16:11:23Z</time>
      </trkpt>
      <trkpt lat="43.54111" lon="1.48822">
        <ele>203.026</ele>
        <time>2020-04-03T16:11:29Z</time>
      </trkpt>
      <trkpt lat="43.54114" lon="1.48815">
        <ele>202.725</ele>
        <time>2020-04-03T16:11:35Z</time>
      </trkpt>
      <trkpt lat="43.54116" lon="1.48808">
        <ele>202.499</ele>
        <time>2020-04-03T16:11:40Z</time>
      </trkpt>
      <trkpt lat="43.54115" lon="1.48798">
        <ele>202.238</ele>
        <time>2020-04-03T16:11:46Z</time>
      </trkpt>
      <trkpt lat="43.54118" lon="1.48792">
        <ele>202.045</ele>
        <time>2020-04-03T16:11:51Z</time>
      </trkpt>
      <trkpt lat="43.54118" lon="1.48789">
        <ele>201.931</ele>
        <time>2020-04-03T16:11:57Z</time>
      </trkpt>
      <trkpt lat="43.54117" lon="1.48788">
        <ele>201.822</ele>
        <time>2020-04-03T16:12:03Z</time>
      </trkpt>
      <trkpt lat="43.54117" lon="1.48773">
        <ele>201.703</ele>
        <time>2020-04-03T16:12:09Z</time>
      </trkpt>
      <trkpt lat="43.54119" lon="1.48764">
        <ele>201.598</ele>
        <time>2020-04-03T16:12:15Z</time>
      </trkpt>
      <trkpt lat="43.5412" lon="1.48755">
        <ele>201.498</ele>
        <time>2020-04-03T16:12:21Z</time>
      </trkpt>
      <trkpt lat="43.54122" lon="1.48751">
        <ele>201.408</ele>
        <time>2020-04-03T16:12:27Z</time>
      </trkpt>
      <trkpt lat="43.54122" lon="1.48746">
        <ele>201.352</ele>
        <time>2020-04-03T16:12:32Z</time>
      </trkpt>
      <trkpt lat="43.54114" lon="1.4873">
        <ele>201.298</ele>
        <time>2020-04-03T16:12:37Z</time>
      </trkpt>
      <trkpt lat="43.54115" lon="1.48715">
        <ele>201.243</ele>
        <time>2020-04-03T16:12:43Z</time>
      </trkpt>
      <trkpt lat="43.54114" lon="1.48707">
        <ele>201.187</ele>
        <time>2020-04-03T16:12:49Z</time>
      </trkpt>
      <trkpt lat="43.54112" lon="1.48706">
        <ele>201.145</ele>
        <time>2020-04-03T16:12:55Z</time>
      </trkpt>
      <trkpt lat="43.5411" lon="1.487">
        <ele>201.116</ele>
        <time>2020-04-03T16:13:01Z</time>
      </trkpt>
      <trkpt lat="43.54108" lon="1.48696">
        <ele>201.095</ele>
        <time>2020-04-03T16:13:06Z</time>
      </trkpt>
      <trkpt lat="43.54107" lon="1.48689">
        <ele>201.057</ele>
        <time>2020-04-03T16:13:12Z</time>
      </trkpt>
      <trkpt lat="43.54105" lon="1.48684">
        <ele>201.007</ele>
        <time>2020-04-03T16:13:17Z</time>
      </trkpt>
      <trkpt lat="43.54102" lon="1.48675">
        <ele>200.931</ele>
        <time>2020-04-03T16:13:22Z</time>
      </trkpt>
      <trkpt lat="43.54103" lon="1.48668">
        <ele>200.856</ele>
        <time>2020-04-03T16:13:27Z</time>
      </trkpt>
      <trkpt lat="43.54106" lon="1.48657">
        <ele>200.745</ele>
        <time>2020-04-03T16:13:33Z</time>
      </trkpt>
      <trkpt lat="43.54105" lon="1.48648">
        <ele>200.667</ele>
        <time>2020-04-03T16:13:39Z</time>
      </trkpt>
      <trkpt lat="43.54104" lon="1.48639">
        <ele>200.62</ele>
        <time>2020-04-03T16:13:45Z</time>
      </trkpt>
      <trkpt lat="43.54102" lon="1.48633">
        <ele>200.601</ele>
        <time>2020-04-03T16:13:50Z</time>
      </trkpt>
      <trkpt lat="43.54102" lon="1.48627">
        <ele>200.599</ele>
        <time>2020-04-03T16:13:56Z</time>
      </trkpt>
      <trkpt lat="43.54103" lon="1.48615">
        <ele>200.592</ele>
        <time>2020-04-03T16:14:01Z</time>
      </trkpt>
      <trkpt lat="43.54104" lon="1.48603">
        <ele>200.595</ele>
        <time>2020-04-03T16:14:07Z</time>
      </trkpt>
      <trkpt lat="43.54104" lon="1.48597">
        <ele>200.631</ele>
        <time>2020-04-03T16:14:13Z</time>
      </trkpt>
      <trkpt lat="43.54106" lon="1.48588">
        <ele>200.71</ele>
        <time>2020-04-03T16:14:19Z</time>
      </trkpt>
      <trkpt lat="43.54108" lon="1.48576">
        <ele>200.816</ele>
        <time>2020-04-03T16:14:25Z</time>
      </trkpt>
      <trkpt lat="43.54108" lon="1.48567">
        <ele>200.908</ele>
        <time>2020-04-03T16:14:30Z</time>
      </trkpt>
      <trkpt lat="43.54109" lon="1.48561">
        <ele>200.994</ele>
        <time>2020-04-03T16:14:36Z</time>
      </trkpt>
      <trkpt lat="43.54111" lon="1.4855">
        <ele>201.066</ele>
        <time>2020-04-03T16:14:41Z</time>
      </trkpt>
      <trkpt lat="43.54111" lon="1.48545">
        <ele>201.123</ele>
        <time>2020-04-03T16:14:47Z</time>
      </trkpt>
      <trkpt lat="43.54114" lon="1.48539">
        <ele>201.179</ele>
        <time>2020-04-03T16:14:53Z</time>
      </trkpt>
      <trkpt lat="43.54115" lon="1.48525">
        <ele>201.25</ele>
        <time>2020-04-03T16:14:59Z</time>
      </trkpt>
      <trkpt lat="43.54118" lon="1.48515">
        <ele>201.322</ele>
        <time>2020-04-03T16:15:05Z</time>
      </trkpt>
      <trkpt lat="43.5412" lon="1.4851">
        <ele>201.38</ele>
        <time>2020-04-03T16:15:10Z</time>
      </trkpt>
      <trkpt lat="43.54121" lon="1.48503">
        <ele>201.428</ele>
        <time>2020-04-03T16:15:16Z</time>
      </trkpt>
      <trkpt lat="43.54122" lon="1.48496">
        <ele>201.452</ele>
        <time>2020-04-03T16:15:21Z</time>
      </trkpt>
      <trkpt lat="43.54122" lon="1.48492">
        <ele>201.478</ele>
        <time>2020-04-03T16:15:27Z</time>
      </trkpt>
      <trkpt lat="43.54121" lon="1.48491">
        <ele>201.481</ele>
        <time>2020-04-03T16:15:32Z</time>
      </trkpt>
      <trkpt lat="43.54121" lon="1.48487">
        <ele>201.48</ele>
        <time>2020-04-03T16:15:38Z</time>
      </trkpt>
      <trkpt lat="43.54122" lon="1.48478">
        <ele>201.469</ele>
        <time>2020-04-03T16:15:43Z</time>
      </trkpt>
      <trkpt lat="43.54124" lon="1.48466">
        <ele>201.46</ele>
        <time>2020-04-03T16:15:49Z</time>
      </trkpt>
      <trkpt lat="43.54123" lon="1.48459">
        <ele>201.452</ele>
        <time>2020-04-03T16:15:54Z</time>
      </trkpt>
      <trkpt lat="43.54124" lon="1.48457">
        <ele>201.457</ele>
        <time>2020-04-03T16:16:00Z</time>
      </trkpt>
      <trkpt lat="43.54124" lon="1.48458">
        <ele>201.473</ele>
        <time>2020-04-03T16:16:06Z</time>
      </trkpt>
      <trkpt lat="43.54124" lon="1.48457">
        <ele>201.493</ele>
        <time>2020-04-03T16:16:12Z</time>
      </trkpt>
      <trkpt lat="43.54124" lon="1.48457">
        <ele>201.511</ele>
        <time>2020-04-03T16:16:17Z</time>
      </trkpt>
      <trkpt lat="43.54124" lon="1.48457">
        <ele>201.531</ele>
        <time>2020-04-03T16:16:22Z</time>
      </trkpt>
      <trkpt lat="43.54124" lon="1.48457">
        <ele>201.559</ele>
        <time>2020-04-03T16:16:28Z</time>
      </trkpt>
      <trkpt lat="43.54124" lon="1.48457">
        <ele>201.59</ele>
        <time>2020-04-03T16:16:34Z</time>
      </trkpt>
      <trkpt lat="43.54123" lon="1.48457">
        <ele>201.621</ele>
        <time>2020-04-03T16:16:39Z</time>
      </trkpt>
      <trkpt lat="43.54123" lon="1.48457">
        <ele>201.667</ele>
        <time>2020-04-03T16:16:45Z</time>
      </trkpt>
      <trkpt lat="43.54123" lon="1.48457">
        <ele>201.712</ele>
        <time>2020-04-03T16:16:51Z</time>
      </trkpt>
      <trkpt lat="43.54123" lon="1.48457">
        <ele>201.753</ele>
        <time>2020-04-03T16:16:57Z</time>
      </trkpt>
      <trkpt lat="43.54123" lon="1.48457">
        <ele>201.789</ele>
        <time>2020-04-03T16:17:02Z</time>
      </trkpt>
      <trkpt lat="43.54123" lon="1.48457">
        <ele>201.831</ele>
        <time>2020-04-03T16:17:08Z</time>
      </trkpt>
      <trkpt lat="43.54123" lon="1.48457">
        <ele>201.87</ele>
        <time>2020-04-03T16:17:14Z</time>
      </trkpt>
      <trkpt lat="43.54123" lon="1.48457">
        <ele>201.912</ele>
        <time>2020-04-03T16:17:20Z</time>
      </trkpt>
      <trkpt lat="43.54123" lon="1.48458">
        <ele>201.949</ele>
        <time>2020-04-03T16:17:25Z</time>
      </trkpt>
      <trkpt lat="43.54123" lon="1.48458">
        <ele>201.991</ele>
        <time>2020-04-03T16:17:30Z</time>
      </trkpt>
      <trkpt lat="43.54123" lon="1.48458">
        <ele>202.047</ele>
        <time>2020-04-03T16:17:36Z</time>
      </trkpt>
      <trkpt lat="43.54123" lon="1.48457">
        <ele>202.109</ele>
        <time>2020-04-03T16:17:42Z</time>
      </trkpt>
      <trkpt lat="43.54122" lon="1.48457">
        <ele>202.16</ele>
        <time>2020-04-03T16:17:47Z</time>
      </trkpt>
      <trkpt lat="43.54122" lon="1.48457">
        <ele>202.219</ele>
        <time>2020-04-03T16:17:53Z</time>
      </trkpt>
      <trkpt lat="43.54122" lon="1.48457">
        <ele>202.267</ele>
        <time>2020-04-03T16:17:58Z</time>
      </trkpt>
      <trkpt lat="43.54122" lon="1.48457">
        <ele>202.314</ele>
        <time>2020-04-03T16:18:03Z</time>
      </trkpt>
      <trkpt lat="43.54122" lon="1.48457">
        <ele>202.371</ele>
        <time>2020-04-03T16:18:09Z</time>
      </trkpt>
      <trkpt lat="43.54121" lon="1.48456">
        <ele>202.899</ele>
        <time>2020-04-03T16:18:51Z</time>
      </trkpt>
      <trkpt lat="43.54121" lon="1.48456">
        <ele>203.086</ele>
        <time>2020-04-03T16:18:56Z</time>
      </trkpt>
      <trkpt lat="43.54122" lon="1.48449">
        <ele>203.461</ele>
        <time>2020-04-03T16:19:01Z</time>
      </trkpt>
      <trkpt lat="43.54123" lon="1.48443">
        <ele>203.858</ele>
        <time>2020-04-03T16:19:07Z</time>
      </trkpt>
      <trkpt lat="43.54121" lon="1.48436">
        <ele>204.208</ele>
        <time>2020-04-03T16:19:13Z</time>
      </trkpt>
      <trkpt lat="43.54121" lon="1.4843">
        <ele>204.517</ele>
        <time>2020-04-03T16:19:19Z</time>
      </trkpt>
      <trkpt lat="43.54122" lon="1.4842">
        <ele>204.791</ele>
        <time>2020-04-03T16:19:25Z</time>
      </trkpt>
      <trkpt lat="43.54121" lon="1.48414">
        <ele>204.957</ele>
        <time>2020-04-03T16:19:30Z</time>
      </trkpt>
      <trkpt lat="43.5412" lon="1.48408">
        <ele>205.144</ele>
        <time>2020-04-03T16:19:36Z</time>
      </trkpt>
      <trkpt lat="43.54119" lon="1.48403">
        <ele>205.306</ele>
        <time>2020-04-03T16:19:41Z</time>
      </trkpt>
      <trkpt lat="43.54117" lon="1.48396">
        <ele>205.451</ele>
        <time>2020-04-03T16:19:46Z</time>
      </trkpt>
      <trkpt lat="43.54114" lon="1.48386">
        <ele>205.607</ele>
        <time>2020-04-03T16:19:52Z</time>
      </trkpt>
      <trkpt lat="43.54116" lon="1.4838">
        <ele>205.727</ele>
        <time>2020-04-03T16:19:58Z</time>
      </trkpt>
      <trkpt lat="43.54114" lon="1.48373">
        <ele>205.852</ele>
        <time>2020-04-03T16:20:04Z</time>
      </trkpt>
      <trkpt lat="43.54117" lon="1.48368">
        <ele>205.948</ele>
        <time>2020-04-03T16:20:10Z</time>
      </trkpt>
      <trkpt lat="43.54123" lon="1.48357">
        <ele>206.047</ele>
        <time>2020-04-03T16:20:16Z</time>
      </trkpt>
      <trkpt lat="43.54124" lon="1.48358">
        <ele>206.113</ele>
        <time>2020-04-03T16:20:21Z</time>
      </trkpt>
      <trkpt lat="43.54128" lon="1.48354">
        <ele>206.175</ele>
        <time>2020-04-03T16:20:27Z</time>
      </trkpt>
      <trkpt lat="43.54128" lon="1.48349">
        <ele>206.254</ele>
        <time>2020-04-03T16:20:33Z</time>
      </trkpt>
      <trkpt lat="43.54134" lon="1.48349">
        <ele>206.355</ele>
        <time>2020-04-03T16:20:39Z</time>
      </trkpt>
      <trkpt lat="43.54143" lon="1.48342">
        <ele>206.464</ele>
        <time>2020-04-03T16:20:45Z</time>
      </trkpt>
      <trkpt lat="43.5415" lon="1.48339">
        <ele>206.547</ele>
        <time>2020-04-03T16:20:50Z</time>
      </trkpt>
      <trkpt lat="43.5416" lon="1.48337">
        <ele>206.643</ele>
        <time>2020-04-03T16:20:56Z</time>
      </trkpt>
      <trkpt lat="43.54166" lon="1.48333">
        <ele>206.74</ele>
        <time>2020-04-03T16:21:02Z</time>
      </trkpt>
      <trkpt lat="43.54171" lon="1.48327">
        <ele>206.83</ele>
        <time>2020-04-03T16:21:08Z</time>
      </trkpt>
      <trkpt lat="43.54174" lon="1.48322">
        <ele>206.897</ele>
        <time>2020-04-03T16:21:13Z</time>
      </trkpt>
      <trkpt lat="43.54178" lon="1.48317">
        <ele>206.969</ele>
        <time>2020-04-03T16:21:19Z</time>
      </trkpt>
      <trkpt lat="43.54182" lon="1.48314">
        <ele>207.035</ele>
        <time>2020-04-03T16:21:25Z</time>
      </trkpt>
      <trkpt lat="43.54187" lon="1.48313">
        <ele>207.092</ele>
        <time>2020-04-03T16:21:30Z</time>
      </trkpt>
      <trkpt lat="43.54192" lon="1.4831">
        <ele>207.163</ele>
        <time>2020-04-03T16:21:36Z</time>
      </trkpt>
      <trkpt lat="43.54195" lon="1.48304">
        <ele>207.229</ele>
        <time>2020-04-03T16:21:42Z</time>
      </trkpt>
      <trkpt lat="43.54196" lon="1.48295">
        <ele>207.289</ele>
        <time>2020-04-03T16:21:48Z</time>
      </trkpt>
      <trkpt lat="43.542" lon="1.48289">
        <ele>207.346</ele>
        <time>2020-04-03T16:21:53Z</time>
      </trkpt>
      <trkpt lat="43.54206" lon="1.48282">
        <ele>207.412</ele>
        <time>2020-04-03T16:21:59Z</time>
      </trkpt>
      <trkpt lat="43.54212" lon="1.48279">
        <ele>207.48</ele>
        <time>2020-04-03T16:22:05Z</time>
      </trkpt>
      <trkpt lat="43.54218" lon="1.48275">
        <ele>207.54</ele>
        <time>2020-04-03T16:22:10Z</time>
      </trkpt>
      <trkpt lat="43.54225" lon="1.48271">
        <ele>207.609</ele>
        <time>2020-04-03T16:22:16Z</time>
      </trkpt>
      <trkpt lat="43.54228" lon="1.48265">
        <ele>207.664</ele>
        <time>2020-04-03T16:22:21Z</time>
      </trkpt>
      <trkpt lat="43.54232" lon="1.48259">
        <ele>207.721</ele>
        <time>2020-04-03T16:22:26Z</time>
      </trkpt>
      <trkpt lat="43.54236" lon="1.48254">
        <ele>207.779</ele>
        <time>2020-04-03T16:22:31Z</time>
      </trkpt>
      <trkpt lat="43.54242" lon="1.48249">
        <ele>207.844</ele>
        <time>2020-04-03T16:22:37Z</time>
      </trkpt>
      <trkpt lat="43.54247" lon="1.48244">
        <ele>207.9</ele>
        <time>2020-04-03T16:22:43Z</time>
      </trkpt>
      <trkpt lat="43.54253" lon="1.48239">
        <ele>207.955</ele>
        <time>2020-04-03T16:22:49Z</time>
      </trkpt>
      <trkpt lat="43.54257" lon="1.48235">
        <ele>208.005</ele>
        <time>2020-04-03T16:22:55Z</time>
      </trkpt>
      <trkpt lat="43.54261" lon="1.4823">
        <ele>208.054</ele>
        <time>2020-04-03T16:23:01Z</time>
      </trkpt>
      <trkpt lat="43.54266" lon="1.48225">
        <ele>208.104</ele>
        <time>2020-04-03T16:23:07Z</time>
      </trkpt>
      <trkpt lat="43.5427" lon="1.48219">
        <ele>208.156</ele>
        <time>2020-04-03T16:23:13Z</time>
      </trkpt>
      <trkpt lat="43.54274" lon="1.48214">
        <ele>208.196</ele>
        <time>2020-04-03T16:23:18Z</time>
      </trkpt>
      <trkpt lat="43.5428" lon="1.48212">
        <ele>208.238</ele>
        <time>2020-04-03T16:23:23Z</time>
      </trkpt>
      <trkpt lat="43.54286" lon="1.48206">
        <ele>208.287</ele>
        <time>2020-04-03T16:23:29Z</time>
      </trkpt>
      <trkpt lat="43.54292" lon="1.48203">
        <ele>208.332</ele>
        <time>2020-04-03T16:23:34Z</time>
      </trkpt>
      <trkpt lat="43.54298" lon="1.48199">
        <ele>208.387</ele>
        <time>2020-04-03T16:23:40Z</time>
      </trkpt>
      <trkpt lat="43.54303" lon="1.48193">
        <ele>208.437</ele>
        <time>2020-04-03T16:23:46Z</time>
      </trkpt>
      <trkpt lat="43.54309" lon="1.4819">
        <ele>208.483</ele>
        <time>2020-04-03T16:23:52Z</time>
      </trkpt>
      <trkpt lat="43.5431" lon="1.48189">
        <ele>208.491</ele>
        <time>2020-04-03T16:23:57Z</time>
      </trkpt>
      <trkpt lat="43.54312" lon="1.48184">
        <ele>208.512</ele>
        <time>2020-04-03T16:24:03Z</time>
      </trkpt>
      <trkpt lat="43.54315" lon="1.4818">
        <ele>208.535</ele>
        <time>2020-04-03T16:24:09Z</time>
      </trkpt>
      <trkpt lat="43.54318" lon="1.48175">
        <ele>208.558</ele>
        <time>2020-04-03T16:24:14Z</time>
      </trkpt>
      <trkpt lat="43.54324" lon="1.4817">
        <ele>208.586</ele>
        <time>2020-04-03T16:24:20Z</time>
      </trkpt>
      <trkpt lat="43.54331" lon="1.48165">
        <ele>208.614</ele>
        <time>2020-04-03T16:24:26Z</time>
      </trkpt>
      <trkpt lat="43.54337" lon="1.48161">
        <ele>208.64</ele>
        <time>2020-04-03T16:24:32Z</time>
      </trkpt>
      <trkpt lat="43.54342" lon="1.48158">
        <ele>208.66</ele>
        <time>2020-04-03T16:24:37Z</time>
      </trkpt>
      <trkpt lat="43.54347" lon="1.48156">
        <ele>208.681</ele>
        <time>2020-04-03T16:24:42Z</time>
      </trkpt>
      <trkpt lat="43.54354" lon="1.48154">
        <ele>208.711</ele>
        <time>2020-04-03T16:24:48Z</time>
      </trkpt>
      <trkpt lat="43.54361" lon="1.48152">
        <ele>208.744</ele>
        <time>2020-04-03T16:24:54Z</time>
      </trkpt>
      <trkpt lat="43.54366" lon="1.48152">
        <ele>208.774</ele>
        <time>2020-04-03T16:25:00Z</time>
      </trkpt>
      <trkpt lat="43.54372" lon="1.4815">
        <ele>208.798</ele>
        <time>2020-04-03T16:25:05Z</time>
      </trkpt>
      <trkpt lat="43.54377" lon="1.48151">
        <ele>208.821</ele>
        <time>2020-04-03T16:25:10Z</time>
      </trkpt>
      <trkpt lat="43.54382" lon="1.48153">
        <ele>208.852</ele>
        <time>2020-04-03T16:25:16Z</time>
      </trkpt>
      <trkpt lat="43.54387" lon="1.48156">
        <ele>208.879</ele>
        <time>2020-04-03T16:25:21Z</time>
      </trkpt>
      <trkpt lat="43.54392" lon="1.48159">
        <ele>208.91</ele>
        <time>2020-04-03T16:25:27Z</time>
      </trkpt>
      <trkpt lat="43.54396" lon="1.48162">
        <ele>208.931</ele>
        <time>2020-04-03T16:25:32Z</time>
      </trkpt>
      <trkpt lat="43.54402" lon="1.48165">
        <ele>208.952</ele>
        <time>2020-04-03T16:25:38Z</time>
      </trkpt>
      <trkpt lat="43.54409" lon="1.48169">
        <ele>208.976</ele>
        <time>2020-04-03T16:25:44Z</time>
      </trkpt>
      <trkpt lat="43.54415" lon="1.48173">
        <ele>208.997</ele>
        <time>2020-04-03T16:25:49Z</time>
      </trkpt>
      <trkpt lat="43.5442" lon="1.48175">
        <ele>209.02</ele>
        <time>2020-04-03T16:25:55Z</time>
      </trkpt>
      <trkpt lat="43.54425" lon="1.48178">
        <ele>209.042</ele>
        <time>2020-04-03T16:26:01Z</time>
      </trkpt>
      <trkpt lat="43.54429" lon="1.4818">
        <ele>209.057</ele>
        <time>2020-04-03T16:26:06Z</time>
      </trkpt>
      <trkpt lat="43.54433" lon="1.48185">
        <ele>209.076</ele>
        <time>2020-04-03T16:26:12Z</time>
      </trkpt>
      <trkpt lat="43.54441" lon="1.48189">
        <ele>209.092</ele>
        <time>2020-04-03T16:26:18Z</time>
      </trkpt>
      <trkpt lat="43.54447" lon="1.48192">
        <ele>209.106</ele>
        <time>2020-04-03T16:26:23Z</time>
      </trkpt>
      <trkpt lat="43.54452" lon="1.48195">
        <ele>209.124</ele>
        <time>2020-04-03T16:26:29Z</time>
      </trkpt>
      <trkpt lat="43.54456" lon="1.48197">
        <ele>209.136</ele>
        <time>2020-04-03T16:26:34Z</time>
      </trkpt>
      <trkpt lat="43.54463" lon="1.482">
        <ele>209.149</ele>
        <time>2020-04-03T16:26:40Z</time>
      </trkpt>
      <trkpt lat="43.54469" lon="1.48205">
        <ele>209.155</ele>
        <time>2020-04-03T16:26:46Z</time>
      </trkpt>
      <trkpt lat="43.54475" lon="1.48207">
        <ele>209.155</ele>
        <time>2020-04-03T16:26:51Z</time>
      </trkpt>
      <trkpt lat="43.54481" lon="1.4821">
        <ele>209.149</ele>
        <time>2020-04-03T16:26:57Z</time>
      </trkpt>
      <trkpt lat="43.54487" lon="1.48205">
        <ele>209.144</ele>
        <time>2020-04-03T16:27:03Z</time>
      </trkpt>
      <trkpt lat="43.5449" lon="1.48199">
        <ele>209.143</ele>
        <time>2020-04-03T16:27:08Z</time>
      </trkpt>
      <trkpt lat="43.54492" lon="1.48191">
        <ele>209.148</ele>
        <time>2020-04-03T16:27:14Z</time>
      </trkpt>
      <trkpt lat="43.54496" lon="1.48184">
        <ele>209.17</ele>
        <time>2020-04-03T16:27:20Z</time>
      </trkpt>
      <trkpt lat="43.54502" lon="1.4818">
        <ele>209.201</ele>
        <time>2020-04-03T16:27:26Z</time>
      </trkpt>
      <trkpt lat="43.54508" lon="1.48179">
        <ele>209.23</ele>
        <time>2020-04-03T16:27:31Z</time>
      </trkpt>
      <trkpt lat="43.54517" lon="1.48177">
        <ele>209.264</ele>
        <time>2020-04-03T16:27:37Z</time>
      </trkpt>
      <trkpt lat="43.54523" lon="1.48175">
        <ele>209.296</ele>
        <time>2020-04-03T16:27:43Z</time>
      </trkpt>
      <trkpt lat="43.54528" lon="1.48171">
        <ele>209.324</ele>
        <time>2020-04-03T16:27:49Z</time>
      </trkpt>
      <trkpt lat="43.54535" lon="1.48169">
        <ele>209.35</ele>
        <time>2020-04-03T16:27:55Z</time>
      </trkpt>
      <trkpt lat="43.54541" lon="1.48167">
        <ele>209.371</ele>
        <time>2020-04-03T16:28:00Z</time>
      </trkpt>
      <trkpt lat="43.54545" lon="1.48165">
        <ele>209.392</ele>
        <time>2020-04-03T16:28:05Z</time>
      </trkpt>
      <trkpt lat="43.54551" lon="1.48163">
        <ele>209.411</ele>
        <time>2020-04-03T16:28:10Z</time>
      </trkpt>
      <trkpt lat="43.54557" lon="1.4816">
        <ele>209.432</ele>
        <time>2020-04-03T16:28:16Z</time>
      </trkpt>
      <trkpt lat="43.54563" lon="1.48159">
        <ele>209.452</ele>
        <time>2020-04-03T16:28:22Z</time>
      </trkpt>
      <trkpt lat="43.54568" lon="1.48157">
        <ele>209.468</ele>
        <time>2020-04-03T16:28:27Z</time>
      </trkpt>
      <trkpt lat="43.54576" lon="1.48153">
        <ele>209.486</ele>
        <time>2020-04-03T16:28:33Z</time>
      </trkpt>
      <trkpt lat="43.54579" lon="1.4815">
        <ele>209.505</ele>
        <time>2020-04-03T16:28:39Z</time>
      </trkpt>
      <trkpt lat="43.54585" lon="1.48148">
        <ele>209.527</ele>
        <time>2020-04-03T16:28:45Z</time>
      </trkpt>
      <trkpt lat="43.54589" lon="1.48146">
        <ele>209.542</ele>
        <time>2020-04-03T16:28:50Z</time>
      </trkpt>
      <trkpt lat="43.54596" lon="1.48143">
        <ele>209.558</ele>
        <time>2020-04-03T16:28:56Z</time>
      </trkpt>
      <trkpt lat="43.54601" lon="1.4814">
        <ele>209.579</ele>
        <time>2020-04-03T16:29:02Z</time>
      </trkpt>
      <trkpt lat="43.54607" lon="1.48138">
        <ele>209.597</ele>
        <time>2020-04-03T16:29:07Z</time>
      </trkpt>
      <trkpt lat="43.54615" lon="1.48135">
        <ele>209.613</ele>
        <time>2020-04-03T16:29:13Z</time>
      </trkpt>
      <trkpt lat="43.54622" lon="1.48135">
        <ele>209.619</ele>
        <time>2020-04-03T16:29:19Z</time>
      </trkpt>
      <trkpt lat="43.54629" lon="1.48136">
        <ele>209.62</ele>
        <time>2020-04-03T16:29:24Z</time>
      </trkpt>
      <trkpt lat="43.54633" lon="1.48132">
        <ele>209.62</ele>
        <time>2020-04-03T16:29:30Z</time>
      </trkpt>
      <trkpt lat="43.54639" lon="1.4813">
        <ele>209.619</ele>
        <time>2020-04-03T16:29:35Z</time>
      </trkpt>
      <trkpt lat="43.54645" lon="1.48127">
        <ele>209.613</ele>
        <time>2020-04-03T16:29:41Z</time>
      </trkpt>
      <trkpt lat="43.5465" lon="1.48125">
        <ele>209.601</ele>
        <time>2020-04-03T16:29:47Z</time>
      </trkpt>
      <trkpt lat="43.54655" lon="1.48122">
        <ele>209.587</ele>
        <time>2020-04-03T16:29:53Z</time>
      </trkpt>
      <trkpt lat="43.5466" lon="1.48116">
        <ele>209.577</ele>
        <time>2020-04-03T16:29:58Z</time>
      </trkpt>
      <trkpt lat="43.54665" lon="1.48114">
        <ele>209.574</ele>
        <time>2020-04-03T16:30:04Z</time>
      </trkpt>
      <trkpt lat="43.54673" lon="1.48109">
        <ele>209.582</ele>
        <time>2020-04-03T16:30:10Z</time>
      </trkpt>
      <trkpt lat="43.54678" lon="1.48108">
        <ele>209.591</ele>
        <time>2020-04-03T16:30:15Z</time>
      </trkpt>
      <trkpt lat="43.54685" lon="1.48104">
        <ele>209.601</ele>
        <time>2020-04-03T16:30:21Z</time>
      </trkpt>
      <trkpt lat="43.54687" lon="1.48101">
        <ele>209.607</ele>
        <time>2020-04-03T16:30:26Z</time>
      </trkpt>
      <trkpt lat="43.5469" lon="1.481">
        <ele>209.612</ele>
        <time>2020-04-03T16:30:31Z</time>
      </trkpt>
      <trkpt lat="43.54696" lon="1.48098">
        <ele>209.621</ele>
        <time>2020-04-03T16:30:37Z</time>
      </trkpt>
      <trkpt lat="43.54701" lon="1.48094">
        <ele>209.629</ele>
        <time>2020-04-03T16:30:42Z</time>
      </trkpt>
      <trkpt lat="43.5471" lon="1.48091">
        <ele>209.641</ele>
        <time>2020-04-03T16:30:48Z</time>
      </trkpt>
      <trkpt lat="43.54716" lon="1.48088">
        <ele>209.655</ele>
        <time>2020-04-03T16:30:54Z</time>
      </trkpt>
      <trkpt lat="43.54717" lon="1.48086">
        <ele>209.667</ele>
        <time>2020-04-03T16:31:00Z</time>
      </trkpt>
      <trkpt lat="43.54723" lon="1.48089">
        <ele>209.68</ele>
        <time>2020-04-03T16:31:06Z</time>
      </trkpt>
      <trkpt lat="43.5473" lon="1.4809">
        <ele>209.688</ele>
        <time>2020-04-03T16:31:12Z</time>
      </trkpt>
      <trkpt lat="43.54734" lon="1.48086">
        <ele>209.694</ele>
        <time>2020-04-03T16:31:18Z</time>
      </trkpt>
      <trkpt lat="43.5474" lon="1.48085">
        <ele>209.697</ele>
        <time>2020-04-03T16:31:24Z</time>
      </trkpt>
      <trkpt lat="43.54748" lon="1.48083">
        <ele>209.699</ele>
        <time>2020-04-03T16:31:30Z</time>
      </trkpt>
      <trkpt lat="43.54754" lon="1.48083">
        <ele>209.701</ele>
        <time>2020-04-03T16:31:35Z</time>
      </trkpt>
      <trkpt lat="43.54761" lon="1.48082">
        <ele>209.704</ele>
        <time>2020-04-03T16:31:41Z</time>
      </trkpt>
      <trkpt lat="43.54768" lon="1.48082">
        <ele>209.714</ele>
        <time>2020-04-03T16:31:47Z</time>
      </trkpt>
      <trkpt lat="43.54774" lon="1.48082">
        <ele>209.739</ele>
        <time>2020-04-03T16:31:53Z</time>
      </trkpt>
      <trkpt lat="43.54781" lon="1.48084">
        <ele>209.773</ele>
        <time>2020-04-03T16:31:59Z</time>
      </trkpt>
      <trkpt lat="43.54786" lon="1.48087">
        <ele>209.799</ele>
        <time>2020-04-03T16:32:04Z</time>
      </trkpt>
      <trkpt lat="43.5479" lon="1.48091">
        <ele>209.821</ele>
        <time>2020-04-03T16:32:09Z</time>
      </trkpt>
      <trkpt lat="43.54796" lon="1.48095">
        <ele>209.849</ele>
        <time>2020-04-03T16:32:15Z</time>
      </trkpt>
      <trkpt lat="43.548" lon="1.48096">
        <ele>209.866</ele>
        <time>2020-04-03T16:32:20Z</time>
      </trkpt>
      <trkpt lat="43.54805" lon="1.48094">
        <ele>209.873</ele>
        <time>2020-04-03T16:32:25Z</time>
      </trkpt>
      <trkpt lat="43.54808" lon="1.48086">
        <ele>209.876</ele>
        <time>2020-04-03T16:32:31Z</time>
      </trkpt>
      <trkpt lat="43.54806" lon="1.4808">
        <ele>209.881</ele>
        <time>2020-04-03T16:32:36Z</time>
      </trkpt>
      <trkpt lat="43.54804" lon="1.48073">
        <ele>209.894</ele>
        <time>2020-04-03T16:32:42Z</time>
      </trkpt>
      <trkpt lat="43.54803" lon="1.48072">
        <ele>209.902</ele>
        <time>2020-04-03T16:32:47Z</time>
      </trkpt>
      <trkpt lat="43.54803" lon="1.48072">
        <ele>209.904</ele>
        <time>2020-04-03T16:32:52Z</time>
      </trkpt>
      <trkpt lat="43.54803" lon="1.48068">
        <ele>209.929</ele>
        <time>2020-04-03T16:32:58Z</time>
      </trkpt>
      <trkpt lat="43.54802" lon="1.48059">
        <ele>209.959</ele>
        <time>2020-04-03T16:33:04Z</time>
      </trkpt>
      <trkpt lat="43.548" lon="1.48051">
        <ele>209.99</ele>
        <time>2020-04-03T16:33:10Z</time>
      </trkpt>
      <trkpt lat="43.54798" lon="1.48044">
        <ele>210.017</ele>
        <time>2020-04-03T16:33:15Z</time>
      </trkpt>
      <trkpt lat="43.54794" lon="1.48036">
        <ele>210.049</ele>
        <time>2020-04-03T16:33:21Z</time>
      </trkpt>
      <trkpt lat="43.54791" lon="1.48029">
        <ele>210.079</ele>
        <time>2020-04-03T16:33:27Z</time>
      </trkpt>
      <trkpt lat="43.5479" lon="1.48021">
        <ele>210.11</ele>
        <time>2020-04-03T16:33:33Z</time>
      </trkpt>
      <trkpt lat="43.54786" lon="1.48015">
        <ele>210.141</ele>
        <time>2020-04-03T16:33:38Z</time>
      </trkpt>
      <trkpt lat="43.54782" lon="1.48009">
        <ele>210.176</ele>
        <time>2020-04-03T16:33:43Z</time>
      </trkpt>
      <trkpt lat="43.5478" lon="1.48001">
        <ele>210.219</ele>
        <time>2020-04-03T16:33:49Z</time>
      </trkpt>
      <trkpt lat="43.54779" lon="1.47993">
        <ele>210.252</ele>
        <time>2020-04-03T16:33:54Z</time>
      </trkpt>
      <trkpt lat="43.54776" lon="1.47986">
        <ele>210.285</ele>
        <time>2020-04-03T16:33:59Z</time>
      </trkpt>
      <trkpt lat="43.54774" lon="1.47979">
        <ele>210.323</ele>
        <time>2020-04-03T16:34:05Z</time>
      </trkpt>
      <trkpt lat="43.54771" lon="1.47971">
        <ele>210.351</ele>
        <time>2020-04-03T16:34:10Z</time>
      </trkpt>
      <trkpt lat="43.54769" lon="1.47966">
        <ele>210.374</ele>
        <time>2020-04-03T16:34:15Z</time>
      </trkpt>
      <trkpt lat="43.54766" lon="1.47961">
        <ele>210.382</ele>
        <time>2020-04-03T16:34:21Z</time>
      </trkpt>
      <trkpt lat="43.54762" lon="1.47951">
        <ele>210.377</ele>
        <time>2020-04-03T16:34:27Z</time>
      </trkpt>
      <trkpt lat="43.54759" lon="1.47942">
        <ele>210.368</ele>
        <time>2020-04-03T16:34:32Z</time>
      </trkpt>
      <trkpt lat="43.54758" lon="1.47935">
        <ele>210.356</ele>
        <time>2020-04-03T16:34:37Z</time>
      </trkpt>
      <trkpt lat="43.54755" lon="1.47926">
        <ele>210.345</ele>
        <time>2020-04-03T16:34:43Z</time>
      </trkpt>
      <trkpt lat="43.54753" lon="1.4792">
        <ele>210.334</ele>
        <time>2020-04-03T16:34:48Z</time>
      </trkpt>
      <trkpt lat="43.54751" lon="1.47912">
        <ele>210.319</ele>
        <time>2020-04-03T16:34:54Z</time>
      </trkpt>
      <trkpt lat="43.54748" lon="1.47904">
        <ele>210.308</ele>
        <time>2020-04-03T16:34:59Z</time>
      </trkpt>
      <trkpt lat="43.54748" lon="1.47898">
        <ele>210.297</ele>
        <time>2020-04-03T16:35:05Z</time>
      </trkpt>
      <trkpt lat="43.54751" lon="1.4789">
        <ele>210.291</ele>
        <time>2020-04-03T16:35:11Z</time>
      </trkpt>
      <trkpt lat="43.54755" lon="1.47883">
        <ele>210.291</ele>
        <time>2020-04-03T16:35:17Z</time>
      </trkpt>
      <trkpt lat="43.54758" lon="1.47878">
        <ele>210.286</ele>
        <time>2020-04-03T16:35:23Z</time>
      </trkpt>
      <trkpt lat="43.5476" lon="1.47873">
        <ele>210.279</ele>
        <time>2020-04-03T16:35:29Z</time>
      </trkpt>
      <trkpt lat="43.54762" lon="1.47863">
        <ele>210.272</ele>
        <time>2020-04-03T16:35:35Z</time>
      </trkpt>
      <trkpt lat="43.54764" lon="1.47857">
        <ele>210.269</ele>
        <time>2020-04-03T16:35:40Z</time>
      </trkpt>
      <trkpt lat="43.54769" lon="1.47847">
        <ele>210.272</ele>
        <time>2020-04-03T16:35:46Z</time>
      </trkpt>
      <trkpt lat="43.54771" lon="1.47842">
        <ele>210.277</ele>
        <time>2020-04-03T16:35:52Z</time>
      </trkpt>
      <trkpt lat="43.54776" lon="1.47835">
        <ele>210.283</ele>
        <time>2020-04-03T16:35:57Z</time>
      </trkpt>
      <trkpt lat="43.54782" lon="1.4783">
        <ele>210.291</ele>
        <time>2020-04-03T16:36:03Z</time>
      </trkpt>
      <trkpt lat="43.54786" lon="1.47824">
        <ele>210.299</ele>
        <time>2020-04-03T16:36:08Z</time>
      </trkpt>
      <trkpt lat="43.54788" lon="1.4782">
        <ele>210.305</ele>
        <time>2020-04-03T16:36:13Z</time>
      </trkpt>
      <trkpt lat="43.5479" lon="1.47813">
        <ele>210.312</ele>
        <time>2020-04-03T16:36:19Z</time>
      </trkpt>
      <trkpt lat="43.54794" lon="1.47807">
        <ele>210.32</ele>
        <time>2020-04-03T16:36:24Z</time>
      </trkpt>
      <trkpt lat="43.54799" lon="1.47803">
        <ele>210.326</ele>
        <time>2020-04-03T16:36:30Z</time>
      </trkpt>
      <trkpt lat="43.54805" lon="1.47799">
        <ele>210.332</ele>
        <time>2020-04-03T16:36:35Z</time>
      </trkpt>
      <trkpt lat="43.5481" lon="1.47798">
        <ele>210.336</ele>
        <time>2020-04-03T16:36:40Z</time>
      </trkpt>
      <trkpt lat="43.54817" lon="1.47792">
        <ele>210.345</ele>
        <time>2020-04-03T16:36:46Z</time>
      </trkpt>
      <trkpt lat="43.54823" lon="1.47788">
        <ele>210.343</ele>
        <time>2020-04-03T16:36:51Z</time>
      </trkpt>
      <trkpt lat="43.54829" lon="1.47786">
        <ele>210.343</ele>
        <time>2020-04-03T16:36:57Z</time>
      </trkpt>
      <trkpt lat="43.54835" lon="1.47784">
        <ele>210.342</ele>
        <time>2020-04-03T16:37:03Z</time>
      </trkpt>
      <trkpt lat="43.54837" lon="1.47783">
        <ele>210.338</ele>
        <time>2020-04-03T16:37:09Z</time>
      </trkpt>
      <trkpt lat="43.54837" lon="1.47783">
        <ele>210.334</ele>
        <time>2020-04-03T16:37:14Z</time>
      </trkpt>
      <trkpt lat="43.54837" lon="1.47783">
        <ele>210.331</ele>
        <time>2020-04-03T16:37:20Z</time>
      </trkpt>
      <trkpt lat="43.54837" lon="1.47783">
        <ele>210.327</ele>
        <time>2020-04-03T16:37:26Z</time>
      </trkpt>
      <trkpt lat="43.54842" lon="1.47782">
        <ele>210.298</ele>
        <time>2020-04-03T16:37:31Z</time>
      </trkpt>
      <trkpt lat="43.54848" lon="1.47777">
        <ele>210.274</ele>
        <time>2020-04-03T16:37:37Z</time>
      </trkpt>
      <trkpt lat="43.54853" lon="1.47771">
        <ele>210.25</ele>
        <time>2020-04-03T16:37:43Z</time>
      </trkpt>
      <trkpt lat="43.54855" lon="1.47769">
        <ele>210.241</ele>
        <time>2020-04-03T16:37:48Z</time>
      </trkpt>
      <trkpt lat="43.54856" lon="1.47769">
        <ele>210.223</ele>
        <time>2020-04-03T16:37:54Z</time>
      </trkpt>
      <trkpt lat="43.5486" lon="1.47765">
        <ele>210.184</ele>
        <time>2020-04-03T16:38:00Z</time>
      </trkpt>
      <trkpt lat="43.54866" lon="1.47764">
        <ele>210.163</ele>
        <time>2020-04-03T16:38:06Z</time>
      </trkpt>
      <trkpt lat="43.54872" lon="1.47759">
        <ele>210.153</ele>
        <time>2020-04-03T16:38:11Z</time>
      </trkpt>
      <trkpt lat="43.54877" lon="1.47757">
        <ele>210.145</ele>
        <time>2020-04-03T16:38:17Z</time>
      </trkpt>
      <trkpt lat="43.5488" lon="1.47756">
        <ele>210.139</ele>
        <time>2020-04-03T16:38:22Z</time>
      </trkpt>
      <trkpt lat="43.54886" lon="1.47752">
        <ele>210.134</ele>
        <time>2020-04-03T16:38:28Z</time>
      </trkpt>
      <trkpt lat="43.54892" lon="1.47747">
        <ele>210.129</ele>
        <time>2020-04-03T16:38:34Z</time>
      </trkpt>
      <trkpt lat="43.54901" lon="1.47744">
        <ele>210.132</ele>
        <time>2020-04-03T16:38:40Z</time>
      </trkpt>
      <trkpt lat="43.54903" lon="1.47743">
        <ele>210.139</ele>
        <time>2020-04-03T16:38:46Z</time>
      </trkpt>
      <trkpt lat="43.5491" lon="1.4774">
        <ele>210.146</ele>
        <time>2020-04-03T16:38:52Z</time>
      </trkpt>
      <trkpt lat="43.54913" lon="1.47737">
        <ele>210.149</ele>
        <time>2020-04-03T16:38:57Z</time>
      </trkpt>
      <trkpt lat="43.54919" lon="1.47733">
        <ele>210.154</ele>
        <time>2020-04-03T16:39:02Z</time>
      </trkpt>
      <trkpt lat="43.54927" lon="1.47729">
        <ele>210.17</ele>
        <time>2020-04-03T16:39:08Z</time>
      </trkpt>
      <trkpt lat="43.54933" lon="1.47727">
        <ele>210.192</ele>
        <time>2020-04-03T16:39:14Z</time>
      </trkpt>
      <trkpt lat="43.5494" lon="1.4772">
        <ele>210.212</ele>
        <time>2020-04-03T16:39:20Z</time>
      </trkpt>
      <trkpt lat="43.54944" lon="1.47716">
        <ele>210.229</ele>
        <time>2020-04-03T16:39:26Z</time>
      </trkpt>
      <trkpt lat="43.54951" lon="1.47712">
        <ele>210.248</ele>
        <time>2020-04-03T16:39:32Z</time>
      </trkpt>
      <trkpt lat="43.54957" lon="1.47709">
        <ele>210.267</ele>
        <time>2020-04-03T16:39:38Z</time>
      </trkpt>
      <trkpt lat="43.54961" lon="1.47707">
        <ele>210.282</ele>
        <time>2020-04-03T16:39:43Z</time>
      </trkpt>
      <trkpt lat="43.54967" lon="1.47703">
        <ele>210.299</ele>
        <time>2020-04-03T16:39:49Z</time>
      </trkpt>
      <trkpt lat="43.54972" lon="1.47701">
        <ele>210.314</ele>
        <time>2020-04-03T16:39:54Z</time>
      </trkpt>
      <trkpt lat="43.54978" lon="1.47697">
        <ele>210.336</ele>
        <time>2020-04-03T16:40:00Z</time>
      </trkpt>
      <trkpt lat="43.54984" lon="1.47695">
        <ele>210.357</ele>
        <time>2020-04-03T16:40:05Z</time>
      </trkpt>
      <trkpt lat="43.54989" lon="1.47693">
        <ele>210.376</ele>
        <time>2020-04-03T16:40:10Z</time>
      </trkpt>
      <trkpt lat="43.54995" lon="1.47688">
        <ele>210.396</ele>
        <time>2020-04-03T16:40:16Z</time>
      </trkpt>
      <trkpt lat="43.55" lon="1.47685">
        <ele>210.419</ele>
        <time>2020-04-03T16:40:22Z</time>
      </trkpt>
      <trkpt lat="43.55007" lon="1.47682">
        <ele>210.442</ele>
        <time>2020-04-03T16:40:27Z</time>
      </trkpt>
      <trkpt lat="43.55013" lon="1.47677">
        <ele>210.471</ele>
        <time>2020-04-03T16:40:33Z</time>
      </trkpt>
      <trkpt lat="43.5502" lon="1.47674">
        <ele>210.492</ele>
        <time>2020-04-03T16:40:39Z</time>
      </trkpt>
      <trkpt lat="43.55026" lon="1.47672">
        <ele>210.512</ele>
        <time>2020-04-03T16:40:44Z</time>
      </trkpt>
      <trkpt lat="43.5503" lon="1.4767">
        <ele>210.533</ele>
        <time>2020-04-03T16:40:50Z</time>
      </trkpt>
      <trkpt lat="43.55035" lon="1.47672">
        <ele>210.547</ele>
        <time>2020-04-03T16:40:56Z</time>
      </trkpt>
      <trkpt lat="43.55037" lon="1.47674">
        <ele>210.56</ele>
        <time>2020-04-03T16:41:02Z</time>
      </trkpt>
      <trkpt lat="43.55037" lon="1.47674">
        <ele>210.56</ele>
        <time>2020-04-03T16:41:07Z</time>
      </trkpt>
      <trkpt lat="43.55037" lon="1.47674">
        <ele>210.56</ele>
        <time>2020-04-03T16:41:12Z</time>
      </trkpt>
    </trkseg>
  </trk>
</gpx>